<?xml version="1.0" encoding="UTF-8" standalone="no" ?>
<gpx xmlns="http://www.topografix.com/GPX/1/1" xmlns:xsi="http://www.w3.org/2001/XMLSchema-instance" xsi:schemaLocation="http://www.topografix.com/GPX/1/1 http://www.topografix.com/GPX/1/1/gpx.xsd" version="1.1" creator="VisuGPX - https://www.visugpx.com">
  <metadata>
    <name>2023-09-14 J10</name>
    <desc><![CDATA[Stevenson J10 PontMonvert-Bedoues 23.9km]]></desc>
  </metadata>
  <wpt lat="44.36278" lon="3.74365">
    <ele>872.8</ele>
    <name><![CDATA[0001426]]></name>
    <type><![CDATA[Point de départ]]></type>
  </wpt>
  <wpt lat="44.32093" lon="3.70691">
    <ele>1193</ele>
    <name><![CDATA[0001427]]></name>
    <desc><![CDATA[<p><br /><h3>Nom: Segment: 1</h3><br />Heure de départ: 09/14/2023 08:20<br/>Heure d'arrivée: 09/14/2023 12:53<br/>Distance: 11,1km (04:33)<br/>Temps déplacement: 02:57<br/>Vitesse moyenne: 2,43 km/h<br/>Vitesse moyenne mouv.: 3,68 km/h<br/>Vitesse Max.: 5,58 km/h<br/>Altitude minimale: 879 m<br/>Altitude maximale: 1424 m<br/>Vitesse de montée: 232,4 m/h<br/>Vitesse de descente: -327,2 m/h<br/>Gain d'altitude: 719 m<br/>Perte d'altitude: -396 m<br/>Temps de montée: 03:05<br/>Temps de descente: 01:12<br/></p>]]></desc>
    <type><![CDATA[Point d'arrivée]]></type>
  </wpt>
  <wpt lat="44.32103" lon="3.707">
    <ele>1192.6</ele>
    <name><![CDATA[0001428]]></name>
    <type><![CDATA[Point de départ]]></type>
  </wpt>
  <wpt lat="44.34523" lon="3.61068">
    <ele>565.4</ele>
    <name><![CDATA[0001429]]></name>
    <desc><![CDATA[<p><br /><h3>Nom: Segment: 2</h3><br />Heure de départ: 09/14/2023 13:42<br/>Heure d'arrivée: 09/14/2023 17:02<br/>Distance: 12,8km (03:20)<br/>Temps déplacement: 02:46<br/>Vitesse moyenne: 3,85 km/h<br/>Vitesse moyenne mouv.: 4,59 km/h<br/>Vitesse Max.: 8,85 km/h<br/>Altitude minimale: 564 m<br/>Altitude maximale: 1197 m<br/>Vitesse de montée: 215,5 m/h<br/>Vitesse de descente: -286,7 m/h<br/>Gain d'altitude: 108 m<br/>Perte d'altitude: -736 m<br/>Temps de montée: 00:30<br/>Temps de descente: 02:34<br/></p>]]></desc>
    <type><![CDATA[Point d'arrivée]]></type>
  </wpt>
  <trk>
    <name><![CDATA[2023-09-14 08:20]]></name>
    <desc><![CDATA[<p>Heure de départ: 09/14/2023 08:20<br/>Heure d'arrivée: 09/14/2023 17:02<br/>Distance: 23,9 km (07:53)<br/>Temps déplacement: 05:44<br/>Vitesse moyenne: 3,03 km/h<br/>Vitesse moyenne mouv.: 4,17 km/h<br/>Vitesse Max.: 8,85 km/h<br/>Altitude minimale: 564 m<br/>Altitude maximale: 1424 m<br/>Vitesse de montée: 210,1 m/h<br/>Vitesse de descente: -270,1 m/h<br/>Gain d'altitude: 774 m<br/>Perte d'altitude: -1085 m<br/>Temps de montée: 03:41<br/>Temps de descente: 04:01<br/></p><hr align="center" width="480" style="height: 2px; width: 517px"/>]]></desc>
    <extensions>
      <line xmlns="http://www.topografix.com/GPX/gpx_style/0/2">
        <color>0000FF</color>
        <width>4</width>
      </line>
    </extensions>
    <trkseg>
      <trkpt lat="44.36278" lon="3.74365">
        <ele>879.33</ele>
        <time>2023-09-14T06:20:42Z</time>
      </trkpt>
      <trkpt lat="44.36268" lon="3.7434">
        <ele>883.33</ele>
        <time>2023-09-14T06:21:50Z</time>
      </trkpt>
      <trkpt lat="44.3625" lon="3.7434">
        <ele>882.33</ele>
        <time>2023-09-14T06:22:46Z</time>
      </trkpt>
      <trkpt lat="44.36232" lon="3.74339">
        <ele>887.33</ele>
        <time>2023-09-14T06:23:38Z</time>
      </trkpt>
      <trkpt lat="44.36242" lon="3.74316">
        <ele>888.33</ele>
        <time>2023-09-14T06:24:02Z</time>
      </trkpt>
      <trkpt lat="44.36249" lon="3.7429">
        <ele>891.33</ele>
        <time>2023-09-14T06:24:38Z</time>
      </trkpt>
      <trkpt lat="44.3623" lon="3.74294">
        <ele>896.33</ele>
        <time>2023-09-14T06:25:10Z</time>
      </trkpt>
      <trkpt lat="44.36216" lon="3.74313">
        <ele>899.33</ele>
        <time>2023-09-14T06:25:34Z</time>
      </trkpt>
      <trkpt lat="44.36201" lon="3.74328">
        <ele>902.33</ele>
        <time>2023-09-14T06:25:50Z</time>
      </trkpt>
      <trkpt lat="44.36187" lon="3.74345">
        <ele>902.33</ele>
        <time>2023-09-14T06:26:18Z</time>
      </trkpt>
      <trkpt lat="44.36175" lon="3.74368">
        <ele>904.33</ele>
        <time>2023-09-14T06:26:50Z</time>
      </trkpt>
      <trkpt lat="44.36157" lon="3.74372">
        <ele>906.33</ele>
        <time>2023-09-14T06:27:42Z</time>
      </trkpt>
      <trkpt lat="44.3614" lon="3.7438">
        <ele>912.33</ele>
        <time>2023-09-14T06:28:06Z</time>
      </trkpt>
      <trkpt lat="44.36121" lon="3.74381">
        <ele>915.33</ele>
        <time>2023-09-14T06:28:34Z</time>
      </trkpt>
      <trkpt lat="44.36099" lon="3.74384">
        <ele>919.33</ele>
        <time>2023-09-14T06:28:54Z</time>
      </trkpt>
      <trkpt lat="44.3608" lon="3.74378">
        <ele>921.33</ele>
        <time>2023-09-14T06:29:14Z</time>
      </trkpt>
      <trkpt lat="44.36096" lon="3.74363">
        <ele>927.33</ele>
        <time>2023-09-14T06:30:38Z</time>
      </trkpt>
      <trkpt lat="44.36104" lon="3.74336">
        <ele>929.33</ele>
        <time>2023-09-14T06:30:58Z</time>
      </trkpt>
      <trkpt lat="44.36101" lon="3.7431">
        <ele>936.33</ele>
        <time>2023-09-14T06:31:34Z</time>
      </trkpt>
      <trkpt lat="44.36102" lon="3.74285">
        <ele>945.33</ele>
        <time>2023-09-14T06:32:38Z</time>
      </trkpt>
      <trkpt lat="44.36111" lon="3.74261">
        <ele>949.33</ele>
        <time>2023-09-14T06:32:58Z</time>
      </trkpt>
      <trkpt lat="44.36118" lon="3.74236">
        <ele>950.33</ele>
        <time>2023-09-14T06:33:22Z</time>
      </trkpt>
      <trkpt lat="44.36127" lon="3.74212">
        <ele>956.33</ele>
        <time>2023-09-14T06:33:47Z</time>
      </trkpt>
      <trkpt lat="44.36138" lon="3.74191">
        <ele>960.33</ele>
        <time>2023-09-14T06:34:15Z</time>
      </trkpt>
      <trkpt lat="44.36148" lon="3.74166">
        <ele>963.33</ele>
        <time>2023-09-14T06:34:39Z</time>
      </trkpt>
      <trkpt lat="44.36158" lon="3.74142">
        <ele>968.33</ele>
        <time>2023-09-14T06:35:19Z</time>
      </trkpt>
      <trkpt lat="44.36171" lon="3.74117">
        <ele>974.33</ele>
        <time>2023-09-14T06:35:47Z</time>
      </trkpt>
      <trkpt lat="44.3615" lon="3.74114">
        <ele>982.33</ele>
        <time>2023-09-14T06:36:43Z</time>
      </trkpt>
      <trkpt lat="44.36131" lon="3.74121">
        <ele>987.33</ele>
        <time>2023-09-14T06:37:03Z</time>
      </trkpt>
      <trkpt lat="44.36111" lon="3.74126">
        <ele>988.33</ele>
        <time>2023-09-14T06:37:23Z</time>
      </trkpt>
      <trkpt lat="44.36092" lon="3.74133">
        <ele>994.33</ele>
        <time>2023-09-14T06:37:51Z</time>
      </trkpt>
      <trkpt lat="44.36072" lon="3.74142">
        <ele>995.33</ele>
        <time>2023-09-14T06:38:15Z</time>
      </trkpt>
      <trkpt lat="44.36053" lon="3.74147">
        <ele>1000.33</ele>
        <time>2023-09-14T06:38:35Z</time>
      </trkpt>
      <trkpt lat="44.36034" lon="3.74147">
        <ele>1003.33</ele>
        <time>2023-09-14T06:38:59Z</time>
      </trkpt>
      <trkpt lat="44.36012" lon="3.74143">
        <ele>1008.33</ele>
        <time>2023-09-14T06:39:23Z</time>
      </trkpt>
      <trkpt lat="44.35992" lon="3.74135">
        <ele>1011.33</ele>
        <time>2023-09-14T06:39:47Z</time>
      </trkpt>
      <trkpt lat="44.35974" lon="3.74133">
        <ele>1013.33</ele>
        <time>2023-09-14T06:40:03Z</time>
      </trkpt>
      <trkpt lat="44.35956" lon="3.74131">
        <ele>1018.33</ele>
        <time>2023-09-14T06:40:27Z</time>
      </trkpt>
      <trkpt lat="44.35939" lon="3.7412">
        <ele>1020.33</ele>
        <time>2023-09-14T06:40:55Z</time>
      </trkpt>
      <trkpt lat="44.35924" lon="3.74104">
        <ele>1022.33</ele>
        <time>2023-09-14T06:41:19Z</time>
      </trkpt>
      <trkpt lat="44.35906" lon="3.74094">
        <ele>1026.33</ele>
        <time>2023-09-14T06:41:43Z</time>
      </trkpt>
      <trkpt lat="44.35887" lon="3.74084">
        <ele>1029.33</ele>
        <time>2023-09-14T06:42:03Z</time>
      </trkpt>
      <trkpt lat="44.35868" lon="3.74071">
        <ele>1035.33</ele>
        <time>2023-09-14T06:42:27Z</time>
      </trkpt>
      <trkpt lat="44.35848" lon="3.74061">
        <ele>1039.33</ele>
        <time>2023-09-14T06:42:51Z</time>
      </trkpt>
      <trkpt lat="44.35835" lon="3.74044">
        <ele>1042.33</ele>
        <time>2023-09-14T06:43:11Z</time>
      </trkpt>
      <trkpt lat="44.35814" lon="3.74031">
        <ele>1044.33</ele>
        <time>2023-09-14T06:43:35Z</time>
      </trkpt>
      <trkpt lat="44.35793" lon="3.74031">
        <ele>1046.33</ele>
        <time>2023-09-14T06:43:59Z</time>
      </trkpt>
      <trkpt lat="44.35775" lon="3.74034">
        <ele>1047.33</ele>
        <time>2023-09-14T06:44:15Z</time>
      </trkpt>
      <trkpt lat="44.35754" lon="3.74044">
        <ele>1049.33</ele>
        <time>2023-09-14T06:44:35Z</time>
      </trkpt>
      <trkpt lat="44.35735" lon="3.74052">
        <ele>1053.33</ele>
        <time>2023-09-14T06:45:07Z</time>
      </trkpt>
      <trkpt lat="44.35715" lon="3.74054">
        <ele>1057.33</ele>
        <time>2023-09-14T06:45:31Z</time>
      </trkpt>
      <trkpt lat="44.35694" lon="3.74057">
        <ele>1062.33</ele>
        <time>2023-09-14T06:45:56Z</time>
      </trkpt>
      <trkpt lat="44.35707" lon="3.74035">
        <ele>1066.33</ele>
        <time>2023-09-14T06:46:34Z</time>
      </trkpt>
      <trkpt lat="44.35689" lon="3.74037">
        <ele>1072.33</ele>
        <time>2023-09-14T06:47:50Z</time>
      </trkpt>
      <trkpt lat="44.3567" lon="3.74039">
        <ele>1075.33</ele>
        <time>2023-09-14T06:48:06Z</time>
      </trkpt>
      <trkpt lat="44.35652" lon="3.74044">
        <ele>1076.33</ele>
        <time>2023-09-14T06:48:30Z</time>
      </trkpt>
      <trkpt lat="44.35632" lon="3.74045">
        <ele>1080.33</ele>
        <time>2023-09-14T06:48:54Z</time>
      </trkpt>
      <trkpt lat="44.35611" lon="3.74046">
        <ele>1084.33</ele>
        <time>2023-09-14T06:49:18Z</time>
      </trkpt>
      <trkpt lat="44.3559" lon="3.7405">
        <ele>1086.33</ele>
        <time>2023-09-14T06:49:42Z</time>
      </trkpt>
      <trkpt lat="44.3557" lon="3.74056">
        <ele>1091.33</ele>
        <time>2023-09-14T06:50:06Z</time>
      </trkpt>
      <trkpt lat="44.35551" lon="3.74055">
        <ele>1091.33</ele>
        <time>2023-09-14T06:50:27Z</time>
      </trkpt>
      <trkpt lat="44.35529" lon="3.74057">
        <ele>1093.33</ele>
        <time>2023-09-14T06:50:47Z</time>
      </trkpt>
      <trkpt lat="44.3551" lon="3.74053">
        <ele>1095.33</ele>
        <time>2023-09-14T06:51:07Z</time>
      </trkpt>
      <trkpt lat="44.35491" lon="3.74044">
        <ele>1097.33</ele>
        <time>2023-09-14T06:51:27Z</time>
      </trkpt>
      <trkpt lat="44.35471" lon="3.74042">
        <ele>1097.33</ele>
        <time>2023-09-14T06:51:47Z</time>
      </trkpt>
      <trkpt lat="44.35452" lon="3.74043">
        <ele>1098.33</ele>
        <time>2023-09-14T06:52:03Z</time>
      </trkpt>
      <trkpt lat="44.35434" lon="3.74042">
        <ele>1100.33</ele>
        <time>2023-09-14T06:52:19Z</time>
      </trkpt>
      <trkpt lat="44.35412" lon="3.74039">
        <ele>1100.33</ele>
        <time>2023-09-14T06:52:39Z</time>
      </trkpt>
      <trkpt lat="44.35391" lon="3.74035">
        <ele>1100.33</ele>
        <time>2023-09-14T06:52:59Z</time>
      </trkpt>
      <trkpt lat="44.35376" lon="3.7402">
        <ele>1100.33</ele>
        <time>2023-09-14T06:53:15Z</time>
      </trkpt>
      <trkpt lat="44.35357" lon="3.74014">
        <ele>1100.33</ele>
        <time>2023-09-14T06:53:31Z</time>
      </trkpt>
      <trkpt lat="44.35338" lon="3.74002">
        <ele>1100.33</ele>
        <time>2023-09-14T06:53:51Z</time>
      </trkpt>
      <trkpt lat="44.35349" lon="3.73979">
        <ele>1100.33</ele>
        <time>2023-09-14T06:54:15Z</time>
      </trkpt>
      <trkpt lat="44.3533" lon="3.73979">
        <ele>1099.33</ele>
        <time>2023-09-14T06:55:39Z</time>
      </trkpt>
      <trkpt lat="44.35311" lon="3.73992">
        <ele>1099.33</ele>
        <time>2023-09-14T06:56:23Z</time>
      </trkpt>
      <trkpt lat="44.35295" lon="3.73978">
        <ele>1098.33</ele>
        <time>2023-09-14T06:56:43Z</time>
      </trkpt>
      <trkpt lat="44.35278" lon="3.73963">
        <ele>1098.33</ele>
        <time>2023-09-14T06:56:59Z</time>
      </trkpt>
      <trkpt lat="44.35259" lon="3.7395">
        <ele>1097.33</ele>
        <time>2023-09-14T06:57:35Z</time>
      </trkpt>
      <trkpt lat="44.3524" lon="3.73933">
        <ele>1099.33</ele>
        <time>2023-09-14T06:57:55Z</time>
      </trkpt>
      <trkpt lat="44.35221" lon="3.73931">
        <ele>1101.33</ele>
        <time>2023-09-14T06:58:15Z</time>
      </trkpt>
      <trkpt lat="44.35204" lon="3.7392">
        <ele>1104.33</ele>
        <time>2023-09-14T06:59:23Z</time>
      </trkpt>
      <trkpt lat="44.35188" lon="3.73902">
        <ele>1106.33</ele>
        <time>2023-09-14T06:59:43Z</time>
      </trkpt>
      <trkpt lat="44.3517" lon="3.73897">
        <ele>1110.33</ele>
        <time>2023-09-14T07:20:18Z</time>
      </trkpt>
      <trkpt lat="44.35157" lon="3.73877">
        <ele>1107.33</ele>
        <time>2023-09-14T07:21:15Z</time>
      </trkpt>
      <trkpt lat="44.3514" lon="3.73868">
        <ele>1106.33</ele>
        <time>2023-09-14T07:21:35Z</time>
      </trkpt>
      <trkpt lat="44.35125" lon="3.73848">
        <ele>1104.33</ele>
        <time>2023-09-14T07:21:55Z</time>
      </trkpt>
      <trkpt lat="44.35107" lon="3.7383">
        <ele>1104.33</ele>
        <time>2023-09-14T07:22:15Z</time>
      </trkpt>
      <trkpt lat="44.35091" lon="3.73815">
        <ele>1106.33</ele>
        <time>2023-09-14T07:22:35Z</time>
      </trkpt>
      <trkpt lat="44.35073" lon="3.738">
        <ele>1105.33</ele>
        <time>2023-09-14T07:22:55Z</time>
      </trkpt>
      <trkpt lat="44.35056" lon="3.73787">
        <ele>1104.33</ele>
        <time>2023-09-14T07:23:15Z</time>
      </trkpt>
      <trkpt lat="44.35036" lon="3.73774">
        <ele>1102.33</ele>
        <time>2023-09-14T07:23:35Z</time>
      </trkpt>
      <trkpt lat="44.35017" lon="3.73762">
        <ele>1101.33</ele>
        <time>2023-09-14T07:23:55Z</time>
      </trkpt>
      <trkpt lat="44.34997" lon="3.73754">
        <ele>1101.33</ele>
        <time>2023-09-14T07:24:15Z</time>
      </trkpt>
      <trkpt lat="44.34981" lon="3.7374">
        <ele>1101.33</ele>
        <time>2023-09-14T07:24:35Z</time>
      </trkpt>
      <trkpt lat="44.3496" lon="3.73728">
        <ele>1102.33</ele>
        <time>2023-09-14T07:24:55Z</time>
      </trkpt>
      <trkpt lat="44.34938" lon="3.73722">
        <ele>1101.33</ele>
        <time>2023-09-14T07:25:15Z</time>
      </trkpt>
      <trkpt lat="44.34916" lon="3.73713">
        <ele>1100.33</ele>
        <time>2023-09-14T07:25:35Z</time>
      </trkpt>
      <trkpt lat="44.34897" lon="3.73703">
        <ele>1101.33</ele>
        <time>2023-09-14T07:25:55Z</time>
      </trkpt>
      <trkpt lat="44.34881" lon="3.73693">
        <ele>1102.33</ele>
        <time>2023-09-14T07:26:11Z</time>
      </trkpt>
      <trkpt lat="44.34861" lon="3.7368">
        <ele>1101.33</ele>
        <time>2023-09-14T07:26:32Z</time>
      </trkpt>
      <trkpt lat="44.34842" lon="3.73678">
        <ele>1102.33</ele>
        <time>2023-09-14T07:26:48Z</time>
      </trkpt>
      <trkpt lat="44.34824" lon="3.73681">
        <ele>1103.33</ele>
        <time>2023-09-14T07:27:04Z</time>
      </trkpt>
      <trkpt lat="44.34805" lon="3.73683">
        <ele>1101.33</ele>
        <time>2023-09-14T07:27:20Z</time>
      </trkpt>
      <trkpt lat="44.34784" lon="3.73682">
        <ele>1101.33</ele>
        <time>2023-09-14T07:27:40Z</time>
      </trkpt>
      <trkpt lat="44.34762" lon="3.73677">
        <ele>1101.33</ele>
        <time>2023-09-14T07:28:00Z</time>
      </trkpt>
      <trkpt lat="44.34744" lon="3.7368">
        <ele>1100.33</ele>
        <time>2023-09-14T07:28:16Z</time>
      </trkpt>
      <trkpt lat="44.34723" lon="3.73677">
        <ele>1101.33</ele>
        <time>2023-09-14T07:28:36Z</time>
      </trkpt>
      <trkpt lat="44.34703" lon="3.7369">
        <ele>1102.33</ele>
        <time>2023-09-14T07:28:56Z</time>
      </trkpt>
      <trkpt lat="44.34689" lon="3.73707">
        <ele>1102.33</ele>
        <time>2023-09-14T07:29:12Z</time>
      </trkpt>
      <trkpt lat="44.34673" lon="3.73728">
        <ele>1102.33</ele>
        <time>2023-09-14T07:30:36Z</time>
      </trkpt>
      <trkpt lat="44.34658" lon="3.73741">
        <ele>1102.33</ele>
        <time>2023-09-14T07:30:56Z</time>
      </trkpt>
      <trkpt lat="44.34641" lon="3.73754">
        <ele>1102.33</ele>
        <time>2023-09-14T07:31:12Z</time>
      </trkpt>
      <trkpt lat="44.34625" lon="3.73767">
        <ele>1103.33</ele>
        <time>2023-09-14T07:31:28Z</time>
      </trkpt>
      <trkpt lat="44.34604" lon="3.73771">
        <ele>1101.33</ele>
        <time>2023-09-14T07:31:48Z</time>
      </trkpt>
      <trkpt lat="44.34583" lon="3.73768">
        <ele>1100.33</ele>
        <time>2023-09-14T07:32:08Z</time>
      </trkpt>
      <trkpt lat="44.34565" lon="3.73751">
        <ele>1099.33</ele>
        <time>2023-09-14T07:32:28Z</time>
      </trkpt>
      <trkpt lat="44.34545" lon="3.73747">
        <ele>1103.33</ele>
        <time>2023-09-14T07:32:48Z</time>
      </trkpt>
      <trkpt lat="44.34526" lon="3.73746">
        <ele>1106.33</ele>
        <time>2023-09-14T07:33:08Z</time>
      </trkpt>
      <trkpt lat="44.34504" lon="3.7375">
        <ele>1106.33</ele>
        <time>2023-09-14T07:34:12Z</time>
      </trkpt>
      <trkpt lat="44.34483" lon="3.73752">
        <ele>1105.33</ele>
        <time>2023-09-14T07:34:45Z</time>
      </trkpt>
      <trkpt lat="44.34465" lon="3.7376">
        <ele>1107.33</ele>
        <time>2023-09-14T07:35:13Z</time>
      </trkpt>
      <trkpt lat="44.34448" lon="3.73769">
        <ele>1109.33</ele>
        <time>2023-09-14T07:35:49Z</time>
      </trkpt>
      <trkpt lat="44.34429" lon="3.73778">
        <ele>1109.33</ele>
        <time>2023-09-14T07:36:05Z</time>
      </trkpt>
      <trkpt lat="44.34408" lon="3.73781">
        <ele>1109.33</ele>
        <time>2023-09-14T07:36:21Z</time>
      </trkpt>
      <trkpt lat="44.34388" lon="3.73781">
        <ele>1109.33</ele>
        <time>2023-09-14T07:36:37Z</time>
      </trkpt>
      <trkpt lat="44.34369" lon="3.73783">
        <ele>1108.33</ele>
        <time>2023-09-14T07:36:57Z</time>
      </trkpt>
      <trkpt lat="44.34348" lon="3.73784">
        <ele>1107.33</ele>
        <time>2023-09-14T07:37:13Z</time>
      </trkpt>
      <trkpt lat="44.34325" lon="3.73782">
        <ele>1103.33</ele>
        <time>2023-09-14T07:37:29Z</time>
      </trkpt>
      <trkpt lat="44.34305" lon="3.73779">
        <ele>1104.33</ele>
        <time>2023-09-14T07:37:45Z</time>
      </trkpt>
      <trkpt lat="44.34285" lon="3.73774">
        <ele>1102.33</ele>
        <time>2023-09-14T07:38:01Z</time>
      </trkpt>
      <trkpt lat="44.34265" lon="3.73766">
        <ele>1101.33</ele>
        <time>2023-09-14T07:38:21Z</time>
      </trkpt>
      <trkpt lat="44.34253" lon="3.73746">
        <ele>1100.33</ele>
        <time>2023-09-14T07:38:37Z</time>
      </trkpt>
      <trkpt lat="44.34233" lon="3.7374">
        <ele>1099.33</ele>
        <time>2023-09-14T07:39:05Z</time>
      </trkpt>
      <trkpt lat="44.34214" lon="3.73755">
        <ele>1097.33</ele>
        <time>2023-09-14T07:39:21Z</time>
      </trkpt>
      <trkpt lat="44.34199" lon="3.73778">
        <ele>1097.33</ele>
        <time>2023-09-14T07:39:37Z</time>
      </trkpt>
      <trkpt lat="44.34196" lon="3.73803">
        <ele>1094.33</ele>
        <time>2023-09-14T07:39:53Z</time>
      </trkpt>
      <trkpt lat="44.34197" lon="3.73833">
        <ele>1091.33</ele>
        <time>2023-09-14T07:40:17Z</time>
      </trkpt>
      <trkpt lat="44.34193" lon="3.73859">
        <ele>1090.33</ele>
        <time>2023-09-14T07:40:37Z</time>
      </trkpt>
      <trkpt lat="44.34185" lon="3.73888">
        <ele>1088.33</ele>
        <time>2023-09-14T07:40:57Z</time>
      </trkpt>
      <trkpt lat="44.34173" lon="3.73911">
        <ele>1087.33</ele>
        <time>2023-09-14T07:41:17Z</time>
      </trkpt>
      <trkpt lat="44.34165" lon="3.73934">
        <ele>1087.33</ele>
        <time>2023-09-14T07:41:37Z</time>
      </trkpt>
      <trkpt lat="44.34154" lon="3.73956">
        <ele>1085.33</ele>
        <time>2023-09-14T07:41:53Z</time>
      </trkpt>
      <trkpt lat="44.34141" lon="3.73978">
        <ele>1085.33</ele>
        <time>2023-09-14T07:42:13Z</time>
      </trkpt>
      <trkpt lat="44.34126" lon="3.73999">
        <ele>1084.33</ele>
        <time>2023-09-14T07:42:37Z</time>
      </trkpt>
      <trkpt lat="44.3411" lon="3.74014">
        <ele>1082.33</ele>
        <time>2023-09-14T07:42:57Z</time>
      </trkpt>
      <trkpt lat="44.34096" lon="3.74034">
        <ele>1078.33</ele>
        <time>2023-09-14T07:43:17Z</time>
      </trkpt>
      <trkpt lat="44.34082" lon="3.74059">
        <ele>1074.33</ele>
        <time>2023-09-14T07:43:45Z</time>
      </trkpt>
      <trkpt lat="44.34074" lon="3.74081">
        <ele>1074.33</ele>
        <time>2023-09-14T07:44:05Z</time>
      </trkpt>
      <trkpt lat="44.34061" lon="3.74104">
        <ele>1073.33</ele>
        <time>2023-09-14T07:44:25Z</time>
      </trkpt>
      <trkpt lat="44.34048" lon="3.74125">
        <ele>1073.33</ele>
        <time>2023-09-14T07:46:21Z</time>
      </trkpt>
      <trkpt lat="44.34045" lon="3.7415">
        <ele>1068.33</ele>
        <time>2023-09-14T07:46:37Z</time>
      </trkpt>
      <trkpt lat="44.34046" lon="3.74181">
        <ele>1069.33</ele>
        <time>2023-09-14T07:46:53Z</time>
      </trkpt>
      <trkpt lat="44.34044" lon="3.74209">
        <ele>1068.33</ele>
        <time>2023-09-14T07:47:13Z</time>
      </trkpt>
      <trkpt lat="44.34036" lon="3.74232">
        <ele>1068.33</ele>
        <time>2023-09-14T07:47:33Z</time>
      </trkpt>
      <trkpt lat="44.34032" lon="3.74206">
        <ele>1066.33</ele>
        <time>2023-09-14T07:47:53Z</time>
      </trkpt>
      <trkpt lat="44.34021" lon="3.74185">
        <ele>1068.33</ele>
        <time>2023-09-14T07:48:13Z</time>
      </trkpt>
      <trkpt lat="44.34003" lon="3.74174">
        <ele>1069.33</ele>
        <time>2023-09-14T07:48:33Z</time>
      </trkpt>
      <trkpt lat="44.33988" lon="3.74157">
        <ele>1066.33</ele>
        <time>2023-09-14T07:49:01Z</time>
      </trkpt>
      <trkpt lat="44.33975" lon="3.74137">
        <ele>1061.33</ele>
        <time>2023-09-14T07:49:17Z</time>
      </trkpt>
      <trkpt lat="44.33957" lon="3.74131">
        <ele>1059.33</ele>
        <time>2023-09-14T07:49:33Z</time>
      </trkpt>
      <trkpt lat="44.33944" lon="3.74151">
        <ele>1056.33</ele>
        <time>2023-09-14T07:49:49Z</time>
      </trkpt>
      <trkpt lat="44.33931" lon="3.74172">
        <ele>1055.33</ele>
        <time>2023-09-14T07:50:09Z</time>
      </trkpt>
      <trkpt lat="44.33924" lon="3.74197">
        <ele>1052.33</ele>
        <time>2023-09-14T07:50:25Z</time>
      </trkpt>
      <trkpt lat="44.33922" lon="3.74223">
        <ele>1048.33</ele>
        <time>2023-09-14T07:50:45Z</time>
      </trkpt>
      <trkpt lat="44.33918" lon="3.74252">
        <ele>1042.33</ele>
        <time>2023-09-14T07:51:02Z</time>
      </trkpt>
      <trkpt lat="44.33905" lon="3.7427">
        <ele>1044.33</ele>
        <time>2023-09-14T07:51:23Z</time>
      </trkpt>
      <trkpt lat="44.33892" lon="3.74292">
        <ele>1040.33</ele>
        <time>2023-09-14T07:51:40Z</time>
      </trkpt>
      <trkpt lat="44.33871" lon="3.74295">
        <ele>1041.33</ele>
        <time>2023-09-14T07:52:04Z</time>
      </trkpt>
      <trkpt lat="44.33851" lon="3.743">
        <ele>1038.33</ele>
        <time>2023-09-14T07:52:20Z</time>
      </trkpt>
      <trkpt lat="44.33833" lon="3.7431">
        <ele>1035.33</ele>
        <time>2023-09-14T07:52:40Z</time>
      </trkpt>
      <trkpt lat="44.33811" lon="3.74311">
        <ele>1031.33</ele>
        <time>2023-09-14T07:53:04Z</time>
      </trkpt>
      <trkpt lat="44.33805" lon="3.7434">
        <ele>1026.33</ele>
        <time>2023-09-14T07:53:24Z</time>
      </trkpt>
      <trkpt lat="44.33807" lon="3.74368">
        <ele>1023.33</ele>
        <time>2023-09-14T07:53:40Z</time>
      </trkpt>
      <trkpt lat="44.33798" lon="3.74396">
        <ele>1018.33</ele>
        <time>2023-09-14T07:54:04Z</time>
      </trkpt>
      <trkpt lat="44.33787" lon="3.7442">
        <ele>1015.33</ele>
        <time>2023-09-14T07:54:24Z</time>
      </trkpt>
      <trkpt lat="44.33773" lon="3.74438">
        <ele>1014.33</ele>
        <time>2023-09-14T07:54:40Z</time>
      </trkpt>
      <trkpt lat="44.33769" lon="3.74464">
        <ele>1010.33</ele>
        <time>2023-09-14T07:54:56Z</time>
      </trkpt>
      <trkpt lat="44.33787" lon="3.74472">
        <ele>1006.33</ele>
        <time>2023-09-14T07:56:04Z</time>
      </trkpt>
      <trkpt lat="44.33808" lon="3.7446">
        <ele>1009.33</ele>
        <time>2023-09-14T07:56:52Z</time>
      </trkpt>
      <trkpt lat="44.33825" lon="3.74451">
        <ele>1013.33</ele>
        <time>2023-09-14T07:57:16Z</time>
      </trkpt>
      <trkpt lat="44.33845" lon="3.74449">
        <ele>1017.33</ele>
        <time>2023-09-14T07:57:36Z</time>
      </trkpt>
      <trkpt lat="44.33864" lon="3.74447">
        <ele>1013.33</ele>
        <time>2023-09-14T07:57:52Z</time>
      </trkpt>
      <trkpt lat="44.33887" lon="3.74446">
        <ele>1012.33</ele>
        <time>2023-09-14T07:58:12Z</time>
      </trkpt>
      <trkpt lat="44.33906" lon="3.74439">
        <ele>1013.33</ele>
        <time>2023-09-14T07:58:29Z</time>
      </trkpt>
      <trkpt lat="44.33925" lon="3.74433">
        <ele>1012.33</ele>
        <time>2023-09-14T07:58:49Z</time>
      </trkpt>
      <trkpt lat="44.33942" lon="3.74446">
        <ele>1007.33</ele>
        <time>2023-09-14T07:59:09Z</time>
      </trkpt>
      <trkpt lat="44.33954" lon="3.7447">
        <ele>1009.33</ele>
        <time>2023-09-14T07:59:33Z</time>
      </trkpt>
      <trkpt lat="44.33953" lon="3.74498">
        <ele>1010.33</ele>
        <time>2023-09-14T07:59:53Z</time>
      </trkpt>
      <trkpt lat="44.33953" lon="3.74527">
        <ele>1010.33</ele>
        <time>2023-09-14T08:00:13Z</time>
      </trkpt>
      <trkpt lat="44.33951" lon="3.74552">
        <ele>1008.33</ele>
        <time>2023-09-14T08:00:29Z</time>
      </trkpt>
      <trkpt lat="44.33945" lon="3.74578">
        <ele>1010.33</ele>
        <time>2023-09-14T08:00:45Z</time>
      </trkpt>
      <trkpt lat="44.33939" lon="3.74607">
        <ele>1010.33</ele>
        <time>2023-09-14T08:01:05Z</time>
      </trkpt>
      <trkpt lat="44.33932" lon="3.7463">
        <ele>1009.33</ele>
        <time>2023-09-14T08:01:21Z</time>
      </trkpt>
      <trkpt lat="44.33929" lon="3.74659">
        <ele>1010.33</ele>
        <time>2023-09-14T08:01:37Z</time>
      </trkpt>
      <trkpt lat="44.33931" lon="3.74685">
        <ele>1010.33</ele>
        <time>2023-09-14T08:01:53Z</time>
      </trkpt>
      <trkpt lat="44.33935" lon="3.74714">
        <ele>1006.33</ele>
        <time>2023-09-14T08:02:09Z</time>
      </trkpt>
      <trkpt lat="44.33932" lon="3.74744">
        <ele>1005.33</ele>
        <time>2023-09-14T08:02:29Z</time>
      </trkpt>
      <trkpt lat="44.33923" lon="3.74767">
        <ele>1005.33</ele>
        <time>2023-09-14T08:02:45Z</time>
      </trkpt>
      <trkpt lat="44.33922" lon="3.74795">
        <ele>1001.33</ele>
        <time>2023-09-14T08:03:05Z</time>
      </trkpt>
      <trkpt lat="44.33924" lon="3.7482">
        <ele>1002.33</ele>
        <time>2023-09-14T08:03:25Z</time>
      </trkpt>
      <trkpt lat="44.33923" lon="3.74851">
        <ele>1005.33</ele>
        <time>2023-09-14T08:03:53Z</time>
      </trkpt>
      <trkpt lat="44.33921" lon="3.74877">
        <ele>1008.33</ele>
        <time>2023-09-14T08:04:17Z</time>
      </trkpt>
      <trkpt lat="44.33913" lon="3.74902">
        <ele>1010.33</ele>
        <time>2023-09-14T08:04:41Z</time>
      </trkpt>
      <trkpt lat="44.33899" lon="3.74922">
        <ele>1013.33</ele>
        <time>2023-09-14T08:05:17Z</time>
      </trkpt>
      <trkpt lat="44.33882" lon="3.74934">
        <ele>1017.33</ele>
        <time>2023-09-14T08:05:41Z</time>
      </trkpt>
      <trkpt lat="44.33867" lon="3.74948">
        <ele>1019.33</ele>
        <time>2023-09-14T08:06:05Z</time>
      </trkpt>
      <trkpt lat="44.33848" lon="3.74952">
        <ele>1024.33</ele>
        <time>2023-09-14T08:06:29Z</time>
      </trkpt>
      <trkpt lat="44.33829" lon="3.74949">
        <ele>1027.33</ele>
        <time>2023-09-14T08:07:01Z</time>
      </trkpt>
      <trkpt lat="44.3381" lon="3.74937">
        <ele>1030.33</ele>
        <time>2023-09-14T08:07:21Z</time>
      </trkpt>
      <trkpt lat="44.3379" lon="3.74948">
        <ele>1034.33</ele>
        <time>2023-09-14T08:07:41Z</time>
      </trkpt>
      <trkpt lat="44.33774" lon="3.7496">
        <ele>1032.33</ele>
        <time>2023-09-14T08:08:01Z</time>
      </trkpt>
      <trkpt lat="44.33755" lon="3.74965">
        <ele>1032.33</ele>
        <time>2023-09-14T08:08:25Z</time>
      </trkpt>
      <trkpt lat="44.33738" lon="3.74974">
        <ele>1036.33</ele>
        <time>2023-09-14T08:08:49Z</time>
      </trkpt>
      <trkpt lat="44.3372" lon="3.74982">
        <ele>1038.33</ele>
        <time>2023-09-14T08:09:13Z</time>
      </trkpt>
      <trkpt lat="44.33701" lon="3.74984">
        <ele>1036.33</ele>
        <time>2023-09-14T08:09:37Z</time>
      </trkpt>
      <trkpt lat="44.33682" lon="3.74994">
        <ele>1040.33</ele>
        <time>2023-09-14T08:10:01Z</time>
      </trkpt>
      <trkpt lat="44.33665" lon="3.75002">
        <ele>1043.69</ele>
        <time>2023-09-14T08:10:25Z</time>
      </trkpt>
      <trkpt lat="44.33647" lon="3.75011">
        <ele>1045.69</ele>
        <time>2023-09-14T08:10:49Z</time>
      </trkpt>
      <trkpt lat="44.3363" lon="3.75027">
        <ele>1050.69</ele>
        <time>2023-09-14T08:11:14Z</time>
      </trkpt>
      <trkpt lat="44.33614" lon="3.75039">
        <ele>1056.69</ele>
        <time>2023-09-14T08:11:38Z</time>
      </trkpt>
      <trkpt lat="44.33597" lon="3.75051">
        <ele>1060.69</ele>
        <time>2023-09-14T08:12:02Z</time>
      </trkpt>
      <trkpt lat="44.3358" lon="3.7506">
        <ele>1061.69</ele>
        <time>2023-09-14T08:12:22Z</time>
      </trkpt>
      <trkpt lat="44.33563" lon="3.75075">
        <ele>1071.69</ele>
        <time>2023-09-14T08:12:50Z</time>
      </trkpt>
      <trkpt lat="44.33546" lon="3.75083">
        <ele>1075.69</ele>
        <time>2023-09-14T08:13:14Z</time>
      </trkpt>
      <trkpt lat="44.33527" lon="3.75093">
        <ele>1079.69</ele>
        <time>2023-09-14T08:13:34Z</time>
      </trkpt>
      <trkpt lat="44.33509" lon="3.75105">
        <ele>1084.69</ele>
        <time>2023-09-14T08:13:58Z</time>
      </trkpt>
      <trkpt lat="44.33493" lon="3.75118">
        <ele>1089.69</ele>
        <time>2023-09-14T08:14:18Z</time>
      </trkpt>
      <trkpt lat="44.33474" lon="3.75124">
        <ele>1094.69</ele>
        <time>2023-09-14T08:14:34Z</time>
      </trkpt>
      <trkpt lat="44.33459" lon="3.75138">
        <ele>1097.69</ele>
        <time>2023-09-14T08:14:50Z</time>
      </trkpt>
      <trkpt lat="44.33443" lon="3.75151">
        <ele>1097.69</ele>
        <time>2023-09-14T08:15:10Z</time>
      </trkpt>
      <trkpt lat="44.3343" lon="3.75169">
        <ele>1096.69</ele>
        <time>2023-09-14T08:15:30Z</time>
      </trkpt>
      <trkpt lat="44.33416" lon="3.75185">
        <ele>1089.69</ele>
        <time>2023-09-14T08:15:46Z</time>
      </trkpt>
      <trkpt lat="44.334" lon="3.75205">
        <ele>1091.69</ele>
        <time>2023-09-14T08:16:10Z</time>
      </trkpt>
      <trkpt lat="44.33384" lon="3.75225">
        <ele>1092.69</ele>
        <time>2023-09-14T08:16:26Z</time>
      </trkpt>
      <trkpt lat="44.33372" lon="3.75243">
        <ele>1094.69</ele>
        <time>2023-09-14T08:16:42Z</time>
      </trkpt>
      <trkpt lat="44.33358" lon="3.7526">
        <ele>1093.69</ele>
        <time>2023-09-14T08:17:02Z</time>
      </trkpt>
      <trkpt lat="44.33346" lon="3.75281">
        <ele>1092.69</ele>
        <time>2023-09-14T08:17:23Z</time>
      </trkpt>
      <trkpt lat="44.3333" lon="3.75294">
        <ele>1092.69</ele>
        <time>2023-09-14T08:17:39Z</time>
      </trkpt>
      <trkpt lat="44.33314" lon="3.75313">
        <ele>1089.69</ele>
        <time>2023-09-14T08:17:59Z</time>
      </trkpt>
      <trkpt lat="44.33295" lon="3.75325">
        <ele>1092.69</ele>
        <time>2023-09-14T08:18:19Z</time>
      </trkpt>
      <trkpt lat="44.33274" lon="3.75336">
        <ele>1090.69</ele>
        <time>2023-09-14T08:18:35Z</time>
      </trkpt>
      <trkpt lat="44.33256" lon="3.75339">
        <ele>1091.69</ele>
        <time>2023-09-14T08:18:51Z</time>
      </trkpt>
      <trkpt lat="44.33235" lon="3.75346">
        <ele>1093.69</ele>
        <time>2023-09-14T08:19:11Z</time>
      </trkpt>
      <trkpt lat="44.33218" lon="3.75355">
        <ele>1093.69</ele>
        <time>2023-09-14T08:19:27Z</time>
      </trkpt>
      <trkpt lat="44.332" lon="3.75368">
        <ele>1094.69</ele>
        <time>2023-09-14T08:19:43Z</time>
      </trkpt>
      <trkpt lat="44.33181" lon="3.75371">
        <ele>1097.69</ele>
        <time>2023-09-14T08:20:03Z</time>
      </trkpt>
      <trkpt lat="44.3316" lon="3.75378">
        <ele>1099.69</ele>
        <time>2023-09-14T08:20:23Z</time>
      </trkpt>
      <trkpt lat="44.33146" lon="3.75396">
        <ele>1100.69</ele>
        <time>2023-09-14T08:20:44Z</time>
      </trkpt>
      <trkpt lat="44.3313" lon="3.75412">
        <ele>1104.69</ele>
        <time>2023-09-14T08:21:48Z</time>
      </trkpt>
      <trkpt lat="44.3311" lon="3.75421">
        <ele>1108.69</ele>
        <time>2023-09-14T08:22:20Z</time>
      </trkpt>
      <trkpt lat="44.3309" lon="3.75432">
        <ele>1110.69</ele>
        <time>2023-09-14T08:25:20Z</time>
      </trkpt>
      <trkpt lat="44.33069" lon="3.75426">
        <ele>1111.69</ele>
        <time>2023-09-14T08:25:48Z</time>
      </trkpt>
      <trkpt lat="44.3305" lon="3.75421">
        <ele>1116.69</ele>
        <time>2023-09-14T08:26:08Z</time>
      </trkpt>
      <trkpt lat="44.33031" lon="3.75414">
        <ele>1118.69</ele>
        <time>2023-09-14T08:26:28Z</time>
      </trkpt>
      <trkpt lat="44.3301" lon="3.75407">
        <ele>1122.69</ele>
        <time>2023-09-14T08:26:48Z</time>
      </trkpt>
      <trkpt lat="44.32991" lon="3.754">
        <ele>1126.69</ele>
        <time>2023-09-14T08:27:12Z</time>
      </trkpt>
      <trkpt lat="44.32974" lon="3.7539">
        <ele>1131.69</ele>
        <time>2023-09-14T08:27:40Z</time>
      </trkpt>
      <trkpt lat="44.32958" lon="3.75373">
        <ele>1139.69</ele>
        <time>2023-09-14T08:28:08Z</time>
      </trkpt>
      <trkpt lat="44.32946" lon="3.75352">
        <ele>1143.69</ele>
        <time>2023-09-14T08:28:28Z</time>
      </trkpt>
      <trkpt lat="44.32941" lon="3.75328">
        <ele>1146.69</ele>
        <time>2023-09-14T08:28:49Z</time>
      </trkpt>
      <trkpt lat="44.32934" lon="3.75299">
        <ele>1142.69</ele>
        <time>2023-09-14T08:29:10Z</time>
      </trkpt>
      <trkpt lat="44.32918" lon="3.7528">
        <ele>1144.69</ele>
        <time>2023-09-14T08:29:26Z</time>
      </trkpt>
      <trkpt lat="44.32903" lon="3.75259">
        <ele>1146.69</ele>
        <time>2023-09-14T08:29:46Z</time>
      </trkpt>
      <trkpt lat="44.32885" lon="3.75249">
        <ele>1148.69</ele>
        <time>2023-09-14T08:30:06Z</time>
      </trkpt>
      <trkpt lat="44.32866" lon="3.75239">
        <ele>1149.69</ele>
        <time>2023-09-14T08:30:26Z</time>
      </trkpt>
      <trkpt lat="44.32848" lon="3.75228">
        <ele>1149.69</ele>
        <time>2023-09-14T08:31:10Z</time>
      </trkpt>
      <trkpt lat="44.32829" lon="3.75223">
        <ele>1148.69</ele>
        <time>2023-09-14T08:31:38Z</time>
      </trkpt>
      <trkpt lat="44.32809" lon="3.75217">
        <ele>1150.69</ele>
        <time>2023-09-14T08:31:58Z</time>
      </trkpt>
      <trkpt lat="44.32789" lon="3.75217">
        <ele>1154.69</ele>
        <time>2023-09-14T08:32:18Z</time>
      </trkpt>
      <trkpt lat="44.3277" lon="3.75216">
        <ele>1150.69</ele>
        <time>2023-09-14T08:32:34Z</time>
      </trkpt>
      <trkpt lat="44.32752" lon="3.75203">
        <ele>1154.69</ele>
        <time>2023-09-14T08:32:58Z</time>
      </trkpt>
      <trkpt lat="44.32736" lon="3.75191">
        <ele>1158.69</ele>
        <time>2023-09-14T08:33:18Z</time>
      </trkpt>
      <trkpt lat="44.32729" lon="3.75165">
        <ele>1165.69</ele>
        <time>2023-09-14T08:33:42Z</time>
      </trkpt>
      <trkpt lat="44.32719" lon="3.75141">
        <ele>1168.69</ele>
        <time>2023-09-14T08:34:02Z</time>
      </trkpt>
      <trkpt lat="44.32711" lon="3.75117">
        <ele>1171.69</ele>
        <time>2023-09-14T08:34:22Z</time>
      </trkpt>
      <trkpt lat="44.32703" lon="3.75093">
        <ele>1173.69</ele>
        <time>2023-09-14T08:34:42Z</time>
      </trkpt>
      <trkpt lat="44.3269" lon="3.7507">
        <ele>1176.69</ele>
        <time>2023-09-14T08:35:06Z</time>
      </trkpt>
      <trkpt lat="44.32674" lon="3.75057">
        <ele>1171.69</ele>
        <time>2023-09-14T08:35:22Z</time>
      </trkpt>
      <trkpt lat="44.32658" lon="3.7504">
        <ele>1167.69</ele>
        <time>2023-09-14T08:35:38Z</time>
      </trkpt>
      <trkpt lat="44.3264" lon="3.75026">
        <ele>1168.69</ele>
        <time>2023-09-14T08:35:54Z</time>
      </trkpt>
      <trkpt lat="44.32624" lon="3.75007">
        <ele>1169.69</ele>
        <time>2023-09-14T08:36:18Z</time>
      </trkpt>
      <trkpt lat="44.3261" lon="3.74988">
        <ele>1172.33</ele>
        <time>2023-09-14T08:36:42Z</time>
      </trkpt>
      <trkpt lat="44.32593" lon="3.74966">
        <ele>1176.33</ele>
        <time>2023-09-14T08:37:06Z</time>
      </trkpt>
      <trkpt lat="44.32579" lon="3.74944">
        <ele>1183.33</ele>
        <time>2023-09-14T08:37:26Z</time>
      </trkpt>
      <trkpt lat="44.32562" lon="3.74925">
        <ele>1184.33</ele>
        <time>2023-09-14T08:37:50Z</time>
      </trkpt>
      <trkpt lat="44.32548" lon="3.74905">
        <ele>1182.33</ele>
        <time>2023-09-14T08:38:14Z</time>
      </trkpt>
      <trkpt lat="44.32534" lon="3.74888">
        <ele>1183.33</ele>
        <time>2023-09-14T08:38:30Z</time>
      </trkpt>
      <trkpt lat="44.32515" lon="3.74874">
        <ele>1186.33</ele>
        <time>2023-09-14T08:38:50Z</time>
      </trkpt>
      <trkpt lat="44.32502" lon="3.74852">
        <ele>1187.33</ele>
        <time>2023-09-14T08:39:10Z</time>
      </trkpt>
      <trkpt lat="44.32483" lon="3.7484">
        <ele>1194.33</ele>
        <time>2023-09-14T08:39:34Z</time>
      </trkpt>
      <trkpt lat="44.32469" lon="3.74824">
        <ele>1200.33</ele>
        <time>2023-09-14T08:39:54Z</time>
      </trkpt>
      <trkpt lat="44.32453" lon="3.74811">
        <ele>1204.33</ele>
        <time>2023-09-14T08:40:18Z</time>
      </trkpt>
      <trkpt lat="44.32436" lon="3.74797">
        <ele>1204.33</ele>
        <time>2023-09-14T08:40:38Z</time>
      </trkpt>
      <trkpt lat="44.32421" lon="3.74783">
        <ele>1200.33</ele>
        <time>2023-09-14T08:40:58Z</time>
      </trkpt>
      <trkpt lat="44.32403" lon="3.74766">
        <ele>1200.33</ele>
        <time>2023-09-14T08:41:22Z</time>
      </trkpt>
      <trkpt lat="44.32385" lon="3.74755">
        <ele>1199.33</ele>
        <time>2023-09-14T08:41:42Z</time>
      </trkpt>
      <trkpt lat="44.32369" lon="3.74742">
        <ele>1201.33</ele>
        <time>2023-09-14T08:42:02Z</time>
      </trkpt>
      <trkpt lat="44.3235" lon="3.74729">
        <ele>1205.33</ele>
        <time>2023-09-14T08:42:26Z</time>
      </trkpt>
      <trkpt lat="44.32327" lon="3.74726">
        <ele>1208.33</ele>
        <time>2023-09-14T08:42:50Z</time>
      </trkpt>
      <trkpt lat="44.32305" lon="3.7472">
        <ele>1208.33</ele>
        <time>2023-09-14T08:43:14Z</time>
      </trkpt>
      <trkpt lat="44.32286" lon="3.74715">
        <ele>1209.33</ele>
        <time>2023-09-14T08:43:34Z</time>
      </trkpt>
      <trkpt lat="44.32266" lon="3.74716">
        <ele>1214.33</ele>
        <time>2023-09-14T08:43:58Z</time>
      </trkpt>
      <trkpt lat="44.32246" lon="3.74724">
        <ele>1216.33</ele>
        <time>2023-09-14T08:44:18Z</time>
      </trkpt>
      <trkpt lat="44.32225" lon="3.74727">
        <ele>1219.33</ele>
        <time>2023-09-14T08:44:42Z</time>
      </trkpt>
      <trkpt lat="44.32208" lon="3.74739">
        <ele>1219.33</ele>
        <time>2023-09-14T08:45:02Z</time>
      </trkpt>
      <trkpt lat="44.32188" lon="3.74748">
        <ele>1222.33</ele>
        <time>2023-09-14T08:45:22Z</time>
      </trkpt>
      <trkpt lat="44.32173" lon="3.74764">
        <ele>1226.33</ele>
        <time>2023-09-14T08:45:42Z</time>
      </trkpt>
      <trkpt lat="44.32159" lon="3.7478">
        <ele>1230.33</ele>
        <time>2023-09-14T08:46:02Z</time>
      </trkpt>
      <trkpt lat="44.32147" lon="3.74801">
        <ele>1229.33</ele>
        <time>2023-09-14T08:46:22Z</time>
      </trkpt>
      <trkpt lat="44.3213" lon="3.74816">
        <ele>1230.33</ele>
        <time>2023-09-14T08:46:46Z</time>
      </trkpt>
      <trkpt lat="44.32112" lon="3.74829">
        <ele>1232.33</ele>
        <time>2023-09-14T08:47:14Z</time>
      </trkpt>
      <trkpt lat="44.32095" lon="3.74846">
        <ele>1237.33</ele>
        <time>2023-09-14T08:47:38Z</time>
      </trkpt>
      <trkpt lat="44.32081" lon="3.74864">
        <ele>1243.33</ele>
        <time>2023-09-14T08:48:02Z</time>
      </trkpt>
      <trkpt lat="44.32069" lon="3.74889">
        <ele>1245.33</ele>
        <time>2023-09-14T08:48:27Z</time>
      </trkpt>
      <trkpt lat="44.32056" lon="3.74909">
        <ele>1251.33</ele>
        <time>2023-09-14T08:48:55Z</time>
      </trkpt>
      <trkpt lat="44.32039" lon="3.74921">
        <ele>1254.33</ele>
        <time>2023-09-14T08:49:27Z</time>
      </trkpt>
      <trkpt lat="44.32019" lon="3.74914">
        <ele>1261.33</ele>
        <time>2023-09-14T08:49:59Z</time>
      </trkpt>
      <trkpt lat="44.32001" lon="3.74904">
        <ele>1264.33</ele>
        <time>2023-09-14T08:50:23Z</time>
      </trkpt>
      <trkpt lat="44.31983" lon="3.74897">
        <ele>1266.33</ele>
        <time>2023-09-14T08:50:47Z</time>
      </trkpt>
      <trkpt lat="44.3197" lon="3.74876">
        <ele>1272.33</ele>
        <time>2023-09-14T08:51:19Z</time>
      </trkpt>
      <trkpt lat="44.31954" lon="3.74862">
        <ele>1269.33</ele>
        <time>2023-09-14T08:51:35Z</time>
      </trkpt>
      <trkpt lat="44.31936" lon="3.74847">
        <ele>1268.33</ele>
        <time>2023-09-14T08:51:51Z</time>
      </trkpt>
      <trkpt lat="44.3192" lon="3.74831">
        <ele>1273.33</ele>
        <time>2023-09-14T08:52:15Z</time>
      </trkpt>
      <trkpt lat="44.31914" lon="3.74805">
        <ele>1277.33</ele>
        <time>2023-09-14T08:52:40Z</time>
      </trkpt>
      <trkpt lat="44.31901" lon="3.74787">
        <ele>1278.33</ele>
        <time>2023-09-14T08:53:00Z</time>
      </trkpt>
      <trkpt lat="44.31884" lon="3.74775">
        <ele>1277.33</ele>
        <time>2023-09-14T08:53:20Z</time>
      </trkpt>
      <trkpt lat="44.31866" lon="3.74757">
        <ele>1276.33</ele>
        <time>2023-09-14T08:53:40Z</time>
      </trkpt>
      <trkpt lat="44.3185" lon="3.74736">
        <ele>1282.33</ele>
        <time>2023-09-14T08:54:08Z</time>
      </trkpt>
      <trkpt lat="44.31836" lon="3.7472">
        <ele>1279.33</ele>
        <time>2023-09-14T08:54:28Z</time>
      </trkpt>
      <trkpt lat="44.3182" lon="3.74702">
        <ele>1284.33</ele>
        <time>2023-09-14T08:54:52Z</time>
      </trkpt>
      <trkpt lat="44.31804" lon="3.74688">
        <ele>1288.33</ele>
        <time>2023-09-14T08:55:16Z</time>
      </trkpt>
      <trkpt lat="44.31787" lon="3.7468">
        <ele>1292.33</ele>
        <time>2023-09-14T08:55:44Z</time>
      </trkpt>
      <trkpt lat="44.31769" lon="3.7467">
        <ele>1297.33</ele>
        <time>2023-09-14T08:56:08Z</time>
      </trkpt>
      <trkpt lat="44.31751" lon="3.74655">
        <ele>1300.33</ele>
        <time>2023-09-14T08:56:40Z</time>
      </trkpt>
      <trkpt lat="44.31737" lon="3.74638">
        <ele>1308.33</ele>
        <time>2023-09-14T08:57:12Z</time>
      </trkpt>
      <trkpt lat="44.31721" lon="3.74616">
        <ele>1308.33</ele>
        <time>2023-09-14T08:57:32Z</time>
      </trkpt>
      <trkpt lat="44.31703" lon="3.74597">
        <ele>1311.33</ele>
        <time>2023-09-14T08:57:56Z</time>
      </trkpt>
      <trkpt lat="44.31687" lon="3.74582">
        <ele>1313.33</ele>
        <time>2023-09-14T08:58:16Z</time>
      </trkpt>
      <trkpt lat="44.31683" lon="3.74554">
        <ele>1311.33</ele>
        <time>2023-09-14T09:31:28Z</time>
      </trkpt>
      <trkpt lat="44.31677" lon="3.74529">
        <ele>1311.33</ele>
        <time>2023-09-14T09:32:00Z</time>
      </trkpt>
      <trkpt lat="44.31674" lon="3.74504">
        <ele>1319.33</ele>
        <time>2023-09-14T09:32:48Z</time>
      </trkpt>
      <trkpt lat="44.31664" lon="3.7448">
        <ele>1316.33</ele>
        <time>2023-09-14T09:33:17Z</time>
      </trkpt>
      <trkpt lat="44.31651" lon="3.74455">
        <ele>1318.33</ele>
        <time>2023-09-14T09:33:41Z</time>
      </trkpt>
      <trkpt lat="44.31642" lon="3.74432">
        <ele>1316.33</ele>
        <time>2023-09-14T09:34:05Z</time>
      </trkpt>
      <trkpt lat="44.31637" lon="3.74406">
        <ele>1318.33</ele>
        <time>2023-09-14T09:34:29Z</time>
      </trkpt>
      <trkpt lat="44.31628" lon="3.74383">
        <ele>1321.33</ele>
        <time>2023-09-14T09:34:49Z</time>
      </trkpt>
      <trkpt lat="44.31622" lon="3.74356">
        <ele>1323.33</ele>
        <time>2023-09-14T09:35:13Z</time>
      </trkpt>
      <trkpt lat="44.31614" lon="3.74332">
        <ele>1328.33</ele>
        <time>2023-09-14T09:35:33Z</time>
      </trkpt>
      <trkpt lat="44.31608" lon="3.74301">
        <ele>1331.33</ele>
        <time>2023-09-14T09:35:57Z</time>
      </trkpt>
      <trkpt lat="44.31603" lon="3.74273">
        <ele>1331.33</ele>
        <time>2023-09-14T09:36:21Z</time>
      </trkpt>
      <trkpt lat="44.31593" lon="3.74248">
        <ele>1333.33</ele>
        <time>2023-09-14T09:36:41Z</time>
      </trkpt>
      <trkpt lat="44.31593" lon="3.74221">
        <ele>1336.33</ele>
        <time>2023-09-14T09:37:05Z</time>
      </trkpt>
      <trkpt lat="44.31586" lon="3.74195">
        <ele>1341.33</ele>
        <time>2023-09-14T09:37:57Z</time>
      </trkpt>
      <trkpt lat="44.31579" lon="3.74168">
        <ele>1344.33</ele>
        <time>2023-09-14T09:38:17Z</time>
      </trkpt>
      <trkpt lat="44.3157" lon="3.74144">
        <ele>1343.33</ele>
        <time>2023-09-14T09:38:41Z</time>
      </trkpt>
      <trkpt lat="44.31557" lon="3.74123">
        <ele>1341.33</ele>
        <time>2023-09-14T09:39:09Z</time>
      </trkpt>
      <trkpt lat="44.31561" lon="3.74095">
        <ele>1338.33</ele>
        <time>2023-09-14T09:39:37Z</time>
      </trkpt>
      <trkpt lat="44.31555" lon="3.7407">
        <ele>1343.33</ele>
        <time>2023-09-14T09:40:01Z</time>
      </trkpt>
      <trkpt lat="44.31551" lon="3.74043">
        <ele>1349.33</ele>
        <time>2023-09-14T09:40:33Z</time>
      </trkpt>
      <trkpt lat="44.31547" lon="3.74016">
        <ele>1352.33</ele>
        <time>2023-09-14T09:41:05Z</time>
      </trkpt>
      <trkpt lat="44.31542" lon="3.73989">
        <ele>1362.33</ele>
        <time>2023-09-14T09:41:50Z</time>
      </trkpt>
      <trkpt lat="44.3154" lon="3.73962">
        <ele>1367.33</ele>
        <time>2023-09-14T09:42:19Z</time>
      </trkpt>
      <trkpt lat="44.31539" lon="3.73935">
        <ele>1371.33</ele>
        <time>2023-09-14T09:42:51Z</time>
      </trkpt>
      <trkpt lat="44.3153" lon="3.73911">
        <ele>1374.33</ele>
        <time>2023-09-14T09:43:43Z</time>
      </trkpt>
      <trkpt lat="44.31526" lon="3.73883">
        <ele>1378.33</ele>
        <time>2023-09-14T09:44:15Z</time>
      </trkpt>
      <trkpt lat="44.31525" lon="3.73857">
        <ele>1384.33</ele>
        <time>2023-09-14T09:44:43Z</time>
      </trkpt>
      <trkpt lat="44.31522" lon="3.73831">
        <ele>1387.33</ele>
        <time>2023-09-14T09:45:07Z</time>
      </trkpt>
      <trkpt lat="44.31518" lon="3.73806">
        <ele>1390.33</ele>
        <time>2023-09-14T09:45:31Z</time>
      </trkpt>
      <trkpt lat="44.31513" lon="3.73777">
        <ele>1395.33</ele>
        <time>2023-09-14T09:45:59Z</time>
      </trkpt>
      <trkpt lat="44.31508" lon="3.7375">
        <ele>1398.33</ele>
        <time>2023-09-14T09:46:39Z</time>
      </trkpt>
      <trkpt lat="44.31502" lon="3.7372">
        <ele>1401.33</ele>
        <time>2023-09-14T09:47:07Z</time>
      </trkpt>
      <trkpt lat="44.31498" lon="3.73695">
        <ele>1402.33</ele>
        <time>2023-09-14T09:47:35Z</time>
      </trkpt>
      <trkpt lat="44.31491" lon="3.73671">
        <ele>1404.33</ele>
        <time>2023-09-14T09:49:40Z</time>
      </trkpt>
      <trkpt lat="44.31508" lon="3.73658">
        <ele>1405.33</ele>
        <time>2023-09-14T09:53:09Z</time>
      </trkpt>
      <trkpt lat="44.31526" lon="3.73642">
        <ele>1405.33</ele>
        <time>2023-09-14T09:54:09Z</time>
      </trkpt>
      <trkpt lat="44.31541" lon="3.73624">
        <ele>1403.33</ele>
        <time>2023-09-14T09:54:25Z</time>
      </trkpt>
      <trkpt lat="44.31557" lon="3.73609">
        <ele>1401.33</ele>
        <time>2023-09-14T09:55:01Z</time>
      </trkpt>
      <trkpt lat="44.3157" lon="3.73592">
        <ele>1399.33</ele>
        <time>2023-09-14T09:55:25Z</time>
      </trkpt>
      <trkpt lat="44.31582" lon="3.7357">
        <ele>1395.33</ele>
        <time>2023-09-14T09:55:49Z</time>
      </trkpt>
      <trkpt lat="44.31597" lon="3.73553">
        <ele>1392.33</ele>
        <time>2023-09-14T09:56:29Z</time>
      </trkpt>
      <trkpt lat="44.31607" lon="3.73532">
        <ele>1391.33</ele>
        <time>2023-09-14T09:56:53Z</time>
      </trkpt>
      <trkpt lat="44.31621" lon="3.73515">
        <ele>1390.33</ele>
        <time>2023-09-14T09:57:13Z</time>
      </trkpt>
      <trkpt lat="44.31633" lon="3.73493">
        <ele>1389.33</ele>
        <time>2023-09-14T09:57:33Z</time>
      </trkpt>
      <trkpt lat="44.31639" lon="3.73469">
        <ele>1389.33</ele>
        <time>2023-09-14T09:58:05Z</time>
      </trkpt>
      <trkpt lat="44.31646" lon="3.73442">
        <ele>1386.33</ele>
        <time>2023-09-14T09:58:25Z</time>
      </trkpt>
      <trkpt lat="44.3165" lon="3.73416">
        <ele>1384.33</ele>
        <time>2023-09-14T09:58:49Z</time>
      </trkpt>
      <trkpt lat="44.31656" lon="3.73387">
        <ele>1382.33</ele>
        <time>2023-09-14T09:59:09Z</time>
      </trkpt>
      <trkpt lat="44.3166" lon="3.73358">
        <ele>1379.33</ele>
        <time>2023-09-14T09:59:29Z</time>
      </trkpt>
      <trkpt lat="44.31667" lon="3.73329">
        <ele>1378.33</ele>
        <time>2023-09-14T09:59:49Z</time>
      </trkpt>
      <trkpt lat="44.31671" lon="3.73299">
        <ele>1376.33</ele>
        <time>2023-09-14T10:00:09Z</time>
      </trkpt>
      <trkpt lat="44.31674" lon="3.73271">
        <ele>1376.33</ele>
        <time>2023-09-14T10:00:30Z</time>
      </trkpt>
      <trkpt lat="44.31676" lon="3.73243">
        <ele>1377.33</ele>
        <time>2023-09-14T10:00:50Z</time>
      </trkpt>
      <trkpt lat="44.3168" lon="3.73215">
        <ele>1378.33</ele>
        <time>2023-09-14T10:01:10Z</time>
      </trkpt>
      <trkpt lat="44.31686" lon="3.73188">
        <ele>1377.33</ele>
        <time>2023-09-14T10:01:31Z</time>
      </trkpt>
      <trkpt lat="44.3169" lon="3.73161">
        <ele>1378.33</ele>
        <time>2023-09-14T10:01:51Z</time>
      </trkpt>
      <trkpt lat="44.31691" lon="3.73131">
        <ele>1379.33</ele>
        <time>2023-09-14T10:02:15Z</time>
      </trkpt>
      <trkpt lat="44.31693" lon="3.73103">
        <ele>1377.33</ele>
        <time>2023-09-14T10:02:35Z</time>
      </trkpt>
      <trkpt lat="44.3169" lon="3.73076">
        <ele>1380.33</ele>
        <time>2023-09-14T10:04:07Z</time>
      </trkpt>
      <trkpt lat="44.31695" lon="3.73051">
        <ele>1383.33</ele>
        <time>2023-09-14T10:04:27Z</time>
      </trkpt>
      <trkpt lat="44.317" lon="3.73025">
        <ele>1388.33</ele>
        <time>2023-09-14T10:04:55Z</time>
      </trkpt>
      <trkpt lat="44.31703" lon="3.72999">
        <ele>1394.33</ele>
        <time>2023-09-14T10:05:27Z</time>
      </trkpt>
      <trkpt lat="44.31707" lon="3.72974">
        <ele>1398.33</ele>
        <time>2023-09-14T10:05:59Z</time>
      </trkpt>
      <trkpt lat="44.31714" lon="3.72947">
        <ele>1400.33</ele>
        <time>2023-09-14T10:06:19Z</time>
      </trkpt>
      <trkpt lat="44.31721" lon="3.72923">
        <ele>1404.33</ele>
        <time>2023-09-14T10:06:35Z</time>
      </trkpt>
      <trkpt lat="44.31728" lon="3.729">
        <ele>1406.33</ele>
        <time>2023-09-14T10:06:51Z</time>
      </trkpt>
      <trkpt lat="44.3174" lon="3.72871">
        <ele>1408.33</ele>
        <time>2023-09-14T10:07:19Z</time>
      </trkpt>
      <trkpt lat="44.31747" lon="3.72847">
        <ele>1409.33</ele>
        <time>2023-09-14T10:07:35Z</time>
      </trkpt>
      <trkpt lat="44.31753" lon="3.72823">
        <ele>1411.33</ele>
        <time>2023-09-14T10:07:51Z</time>
      </trkpt>
      <trkpt lat="44.31757" lon="3.72797">
        <ele>1412.33</ele>
        <time>2023-09-14T10:08:07Z</time>
      </trkpt>
      <trkpt lat="44.31753" lon="3.72773">
        <ele>1413.33</ele>
        <time>2023-09-14T10:08:23Z</time>
      </trkpt>
      <trkpt lat="44.31733" lon="3.72759">
        <ele>1417.33</ele>
        <time>2023-09-14T10:08:43Z</time>
      </trkpt>
      <trkpt lat="44.31723" lon="3.72736">
        <ele>1422.33</ele>
        <time>2023-09-14T10:14:09Z</time>
      </trkpt>
      <trkpt lat="44.31729" lon="3.72711">
        <ele>1420.33</ele>
        <time>2023-09-14T10:15:01Z</time>
      </trkpt>
      <trkpt lat="44.31731" lon="3.72684">
        <ele>1420.33</ele>
        <time>2023-09-14T10:15:21Z</time>
      </trkpt>
      <trkpt lat="44.31734" lon="3.72655">
        <ele>1419.33</ele>
        <time>2023-09-14T10:15:41Z</time>
      </trkpt>
      <trkpt lat="44.3173" lon="3.72628">
        <ele>1421.33</ele>
        <time>2023-09-14T10:16:01Z</time>
      </trkpt>
      <trkpt lat="44.31732" lon="3.726">
        <ele>1421.33</ele>
        <time>2023-09-14T10:16:25Z</time>
      </trkpt>
      <trkpt lat="44.31739" lon="3.72573">
        <ele>1424.33</ele>
        <time>2023-09-14T10:19:41Z</time>
      </trkpt>
      <trkpt lat="44.31733" lon="3.72545">
        <ele>1421.33</ele>
        <time>2023-09-14T10:20:01Z</time>
      </trkpt>
      <trkpt lat="44.31729" lon="3.72517">
        <ele>1421.33</ele>
        <time>2023-09-14T10:20:21Z</time>
      </trkpt>
      <trkpt lat="44.31725" lon="3.72487">
        <ele>1421.33</ele>
        <time>2023-09-14T10:20:42Z</time>
      </trkpt>
      <trkpt lat="44.31716" lon="3.72463">
        <ele>1418.33</ele>
        <time>2023-09-14T10:21:02Z</time>
      </trkpt>
      <trkpt lat="44.31711" lon="3.72435">
        <ele>1417.33</ele>
        <time>2023-09-14T10:21:22Z</time>
      </trkpt>
      <trkpt lat="44.31706" lon="3.72408">
        <ele>1415.33</ele>
        <time>2023-09-14T10:21:42Z</time>
      </trkpt>
      <trkpt lat="44.31699" lon="3.72382">
        <ele>1413.33</ele>
        <time>2023-09-14T10:22:02Z</time>
      </trkpt>
      <trkpt lat="44.31691" lon="3.72353">
        <ele>1412.33</ele>
        <time>2023-09-14T10:22:26Z</time>
      </trkpt>
      <trkpt lat="44.31684" lon="3.72322">
        <ele>1410.33</ele>
        <time>2023-09-14T10:22:46Z</time>
      </trkpt>
      <trkpt lat="44.31675" lon="3.723">
        <ele>1410.33</ele>
        <time>2023-09-14T10:23:02Z</time>
      </trkpt>
      <trkpt lat="44.31673" lon="3.72275">
        <ele>1411.33</ele>
        <time>2023-09-14T10:23:22Z</time>
      </trkpt>
      <trkpt lat="44.31671" lon="3.72247">
        <ele>1410.33</ele>
        <time>2023-09-14T10:23:42Z</time>
      </trkpt>
      <trkpt lat="44.31669" lon="3.7222">
        <ele>1407.33</ele>
        <time>2023-09-14T10:24:02Z</time>
      </trkpt>
      <trkpt lat="44.31669" lon="3.72195">
        <ele>1405.33</ele>
        <time>2023-09-14T10:24:22Z</time>
      </trkpt>
      <trkpt lat="44.31664" lon="3.72168">
        <ele>1401.33</ele>
        <time>2023-09-14T10:25:02Z</time>
      </trkpt>
      <trkpt lat="44.31667" lon="3.72139">
        <ele>1400.33</ele>
        <time>2023-09-14T10:25:38Z</time>
      </trkpt>
      <trkpt lat="44.31667" lon="3.72111">
        <ele>1400.33</ele>
        <time>2023-09-14T10:26:06Z</time>
      </trkpt>
      <trkpt lat="44.31671" lon="3.72082">
        <ele>1397.33</ele>
        <time>2023-09-14T10:26:30Z</time>
      </trkpt>
      <trkpt lat="44.31674" lon="3.72056">
        <ele>1395.33</ele>
        <time>2023-09-14T10:26:50Z</time>
      </trkpt>
      <trkpt lat="44.31681" lon="3.72029">
        <ele>1392.33</ele>
        <time>2023-09-14T10:27:14Z</time>
      </trkpt>
      <trkpt lat="44.31692" lon="3.72008">
        <ele>1386.33</ele>
        <time>2023-09-14T10:27:54Z</time>
      </trkpt>
      <trkpt lat="44.31703" lon="3.71985">
        <ele>1384.33</ele>
        <time>2023-09-14T10:28:14Z</time>
      </trkpt>
      <trkpt lat="44.31716" lon="3.71964">
        <ele>1382.33</ele>
        <time>2023-09-14T10:28:34Z</time>
      </trkpt>
      <trkpt lat="44.31728" lon="3.71939">
        <ele>1379.33</ele>
        <time>2023-09-14T10:29:26Z</time>
      </trkpt>
      <trkpt lat="44.31742" lon="3.71918">
        <ele>1376.33</ele>
        <time>2023-09-14T10:29:46Z</time>
      </trkpt>
      <trkpt lat="44.31755" lon="3.71896">
        <ele>1372.33</ele>
        <time>2023-09-14T10:30:14Z</time>
      </trkpt>
      <trkpt lat="44.31768" lon="3.71876">
        <ele>1370.33</ele>
        <time>2023-09-14T10:30:34Z</time>
      </trkpt>
      <trkpt lat="44.31779" lon="3.71855">
        <ele>1367.33</ele>
        <time>2023-09-14T10:30:58Z</time>
      </trkpt>
      <trkpt lat="44.31791" lon="3.71833">
        <ele>1363.33</ele>
        <time>2023-09-14T10:31:22Z</time>
      </trkpt>
      <trkpt lat="44.31806" lon="3.71809">
        <ele>1360.33</ele>
        <time>2023-09-14T10:31:42Z</time>
      </trkpt>
      <trkpt lat="44.31818" lon="3.71788">
        <ele>1356.33</ele>
        <time>2023-09-14T10:32:02Z</time>
      </trkpt>
      <trkpt lat="44.31837" lon="3.71774">
        <ele>1350.33</ele>
        <time>2023-09-14T10:32:26Z</time>
      </trkpt>
      <trkpt lat="44.31856" lon="3.71759">
        <ele>1348.33</ele>
        <time>2023-09-14T10:32:46Z</time>
      </trkpt>
      <trkpt lat="44.31873" lon="3.71747">
        <ele>1341.33</ele>
        <time>2023-09-14T10:33:26Z</time>
      </trkpt>
      <trkpt lat="44.31888" lon="3.71732">
        <ele>1334.33</ele>
        <time>2023-09-14T10:33:46Z</time>
      </trkpt>
      <trkpt lat="44.31903" lon="3.71716">
        <ele>1328.33</ele>
        <time>2023-09-14T10:34:07Z</time>
      </trkpt>
      <trkpt lat="44.31919" lon="3.71701">
        <ele>1323.33</ele>
        <time>2023-09-14T10:34:31Z</time>
      </trkpt>
      <trkpt lat="44.31935" lon="3.71685">
        <ele>1318.33</ele>
        <time>2023-09-14T10:34:55Z</time>
      </trkpt>
      <trkpt lat="44.31953" lon="3.71669">
        <ele>1314.33</ele>
        <time>2023-09-14T10:35:19Z</time>
      </trkpt>
      <trkpt lat="44.3197" lon="3.71651">
        <ele>1312.33</ele>
        <time>2023-09-14T10:35:47Z</time>
      </trkpt>
      <trkpt lat="44.31988" lon="3.7164">
        <ele>1304.33</ele>
        <time>2023-09-14T10:36:07Z</time>
      </trkpt>
      <trkpt lat="44.32002" lon="3.71623">
        <ele>1304.33</ele>
        <time>2023-09-14T10:36:47Z</time>
      </trkpt>
      <trkpt lat="44.31988" lon="3.71603">
        <ele>1305.33</ele>
        <time>2023-09-14T10:38:23Z</time>
      </trkpt>
      <trkpt lat="44.31974" lon="3.71581">
        <ele>1303.33</ele>
        <time>2023-09-14T10:38:43Z</time>
      </trkpt>
      <trkpt lat="44.31961" lon="3.71561">
        <ele>1304.33</ele>
        <time>2023-09-14T10:39:03Z</time>
      </trkpt>
      <trkpt lat="44.31949" lon="3.71539">
        <ele>1307.33</ele>
        <time>2023-09-14T10:39:23Z</time>
      </trkpt>
      <trkpt lat="44.31941" lon="3.71516">
        <ele>1305.33</ele>
        <time>2023-09-14T10:39:43Z</time>
      </trkpt>
      <trkpt lat="44.31929" lon="3.71496">
        <ele>1302.33</ele>
        <time>2023-09-14T10:40:03Z</time>
      </trkpt>
      <trkpt lat="44.31918" lon="3.71472">
        <ele>1300.33</ele>
        <time>2023-09-14T10:40:27Z</time>
      </trkpt>
      <trkpt lat="44.31918" lon="3.71444">
        <ele>1293.33</ele>
        <time>2023-09-14T10:40:51Z</time>
      </trkpt>
      <trkpt lat="44.31913" lon="3.71418">
        <ele>1292.33</ele>
        <time>2023-09-14T10:41:07Z</time>
      </trkpt>
      <trkpt lat="44.31899" lon="3.71398">
        <ele>1288.33</ele>
        <time>2023-09-14T10:41:31Z</time>
      </trkpt>
      <trkpt lat="44.31895" lon="3.71373">
        <ele>1287.33</ele>
        <time>2023-09-14T10:41:51Z</time>
      </trkpt>
      <trkpt lat="44.31891" lon="3.71348">
        <ele>1285.33</ele>
        <time>2023-09-14T10:42:15Z</time>
      </trkpt>
      <trkpt lat="44.31884" lon="3.71318">
        <ele>1281.33</ele>
        <time>2023-09-14T10:42:35Z</time>
      </trkpt>
      <trkpt lat="44.31879" lon="3.7129">
        <ele>1276.33</ele>
        <time>2023-09-14T10:43:07Z</time>
      </trkpt>
      <trkpt lat="44.31879" lon="3.7126">
        <ele>1273.33</ele>
        <time>2023-09-14T10:43:27Z</time>
      </trkpt>
      <trkpt lat="44.31879" lon="3.71234">
        <ele>1269.33</ele>
        <time>2023-09-14T10:43:47Z</time>
      </trkpt>
      <trkpt lat="44.31873" lon="3.71206">
        <ele>1263.33</ele>
        <time>2023-09-14T10:44:11Z</time>
      </trkpt>
      <trkpt lat="44.31867" lon="3.71178">
        <ele>1261.33</ele>
        <time>2023-09-14T10:44:31Z</time>
      </trkpt>
      <trkpt lat="44.31851" lon="3.71164">
        <ele>1251.33</ele>
        <time>2023-09-14T10:45:07Z</time>
      </trkpt>
      <trkpt lat="44.31847" lon="3.71138">
        <ele>1247.33</ele>
        <time>2023-09-14T10:46:03Z</time>
      </trkpt>
      <trkpt lat="44.31861" lon="3.71115">
        <ele>1242.33</ele>
        <time>2023-09-14T10:46:27Z</time>
      </trkpt>
      <trkpt lat="44.31871" lon="3.71091">
        <ele>1240.33</ele>
        <time>2023-09-14T10:46:47Z</time>
      </trkpt>
      <trkpt lat="44.31878" lon="3.71066">
        <ele>1236.33</ele>
        <time>2023-09-14T10:47:07Z</time>
      </trkpt>
      <trkpt lat="44.31886" lon="3.71044">
        <ele>1234.33</ele>
        <time>2023-09-14T10:47:27Z</time>
      </trkpt>
      <trkpt lat="44.31896" lon="3.71021">
        <ele>1230.33</ele>
        <time>2023-09-14T10:47:47Z</time>
      </trkpt>
      <trkpt lat="44.31907" lon="3.70999">
        <ele>1225.33</ele>
        <time>2023-09-14T10:48:11Z</time>
      </trkpt>
      <trkpt lat="44.31917" lon="3.70976">
        <ele>1221.33</ele>
        <time>2023-09-14T10:48:31Z</time>
      </trkpt>
      <trkpt lat="44.31926" lon="3.70949">
        <ele>1218.33</ele>
        <time>2023-09-14T10:48:55Z</time>
      </trkpt>
      <trkpt lat="44.31933" lon="3.70926">
        <ele>1216.33</ele>
        <time>2023-09-14T10:49:39Z</time>
      </trkpt>
      <trkpt lat="44.31949" lon="3.70911">
        <ele>1214.33</ele>
        <time>2023-09-14T10:49:55Z</time>
      </trkpt>
      <trkpt lat="44.31958" lon="3.70886">
        <ele>1212.33</ele>
        <time>2023-09-14T10:50:15Z</time>
      </trkpt>
      <trkpt lat="44.31971" lon="3.70863">
        <ele>1211.33</ele>
        <time>2023-09-14T10:50:35Z</time>
      </trkpt>
      <trkpt lat="44.3199" lon="3.70849">
        <ele>1208.33</ele>
        <time>2023-09-14T10:51:03Z</time>
      </trkpt>
      <trkpt lat="44.3201" lon="3.70839">
        <ele>1207.33</ele>
        <time>2023-09-14T10:51:31Z</time>
      </trkpt>
      <trkpt lat="44.32023" lon="3.70815">
        <ele>1206.33</ele>
        <time>2023-09-14T10:51:51Z</time>
      </trkpt>
      <trkpt lat="44.32039" lon="3.70801">
        <ele>1206.33</ele>
        <time>2023-09-14T10:52:07Z</time>
      </trkpt>
      <trkpt lat="44.32052" lon="3.70784">
        <ele>1206.33</ele>
        <time>2023-09-14T10:52:27Z</time>
      </trkpt>
      <trkpt lat="44.3206" lon="3.70761">
        <ele>1206.33</ele>
        <time>2023-09-14T10:52:43Z</time>
      </trkpt>
      <trkpt lat="44.32071" lon="3.70734">
        <ele>1204.33</ele>
        <time>2023-09-14T10:53:11Z</time>
      </trkpt>
      <trkpt lat="44.32081" lon="3.70711">
        <ele>1202.33</ele>
        <time>2023-09-14T10:53:35Z</time>
      </trkpt>
      <trkpt lat="44.32093" lon="3.70691">
        <ele>1201.33</ele>
        <time>2023-09-14T10:53:55Z</time>
      </trkpt>
      <trkpt lat="44.32103" lon="3.707">
        <ele>1196.33</ele>
        <time>2023-09-14T11:42:19Z</time>
      </trkpt>
      <trkpt lat="44.32104" lon="3.70674">
        <ele>1195.33</ele>
        <time>2023-09-14T11:43:39Z</time>
      </trkpt>
      <trkpt lat="44.321" lon="3.70699">
        <ele>1197.33</ele>
        <time>2023-09-14T11:46:07Z</time>
      </trkpt>
      <trkpt lat="44.32108" lon="3.70675">
        <ele>1196.33</ele>
        <time>2023-09-14T11:46:27Z</time>
      </trkpt>
      <trkpt lat="44.32115" lon="3.70652">
        <ele>1197.33</ele>
        <time>2023-09-14T11:46:47Z</time>
      </trkpt>
      <trkpt lat="44.32122" lon="3.70627">
        <ele>1194.33</ele>
        <time>2023-09-14T11:48:11Z</time>
      </trkpt>
      <trkpt lat="44.32132" lon="3.70603">
        <ele>1191.33</ele>
        <time>2023-09-14T11:48:31Z</time>
      </trkpt>
      <trkpt lat="44.32149" lon="3.70585">
        <ele>1186.33</ele>
        <time>2023-09-14T11:49:15Z</time>
      </trkpt>
      <trkpt lat="44.32162" lon="3.70563">
        <ele>1187.33</ele>
        <time>2023-09-14T11:49:35Z</time>
      </trkpt>
      <trkpt lat="44.32175" lon="3.70537">
        <ele>1185.33</ele>
        <time>2023-09-14T11:49:51Z</time>
      </trkpt>
      <trkpt lat="44.32183" lon="3.70509">
        <ele>1184.33</ele>
        <time>2023-09-14T11:50:07Z</time>
      </trkpt>
      <trkpt lat="44.3219" lon="3.70481">
        <ele>1183.33</ele>
        <time>2023-09-14T11:50:23Z</time>
      </trkpt>
      <trkpt lat="44.32203" lon="3.70456">
        <ele>1184.33</ele>
        <time>2023-09-14T11:50:40Z</time>
      </trkpt>
      <trkpt lat="44.32213" lon="3.70428">
        <ele>1186.33</ele>
        <time>2023-09-14T11:51:00Z</time>
      </trkpt>
      <trkpt lat="44.3222" lon="3.70402">
        <ele>1185.33</ele>
        <time>2023-09-14T11:51:18Z</time>
      </trkpt>
      <trkpt lat="44.32222" lon="3.70376">
        <ele>1185.33</ele>
        <time>2023-09-14T11:51:34Z</time>
      </trkpt>
      <trkpt lat="44.32233" lon="3.70354">
        <ele>1187.33</ele>
        <time>2023-09-14T11:52:04Z</time>
      </trkpt>
      <trkpt lat="44.32248" lon="3.70332">
        <ele>1185.33</ele>
        <time>2023-09-14T11:55:08Z</time>
      </trkpt>
      <trkpt lat="44.32264" lon="3.70316">
        <ele>1183.33</ele>
        <time>2023-09-14T11:55:28Z</time>
      </trkpt>
      <trkpt lat="44.32283" lon="3.70294">
        <ele>1182.33</ele>
        <time>2023-09-14T11:55:48Z</time>
      </trkpt>
      <trkpt lat="44.32297" lon="3.70271">
        <ele>1181.33</ele>
        <time>2023-09-14T11:56:00Z</time>
      </trkpt>
      <trkpt lat="44.32305" lon="3.70243">
        <ele>1179.33</ele>
        <time>2023-09-14T11:56:16Z</time>
      </trkpt>
      <trkpt lat="44.32317" lon="3.70222">
        <ele>1177.33</ele>
        <time>2023-09-14T11:56:32Z</time>
      </trkpt>
      <trkpt lat="44.32324" lon="3.70199">
        <ele>1173.33</ele>
        <time>2023-09-14T11:56:52Z</time>
      </trkpt>
      <trkpt lat="44.32332" lon="3.70171">
        <ele>1168.33</ele>
        <time>2023-09-14T11:57:09Z</time>
      </trkpt>
      <trkpt lat="44.32341" lon="3.70137">
        <ele>1167.33</ele>
        <time>2023-09-14T11:57:25Z</time>
      </trkpt>
      <trkpt lat="44.32342" lon="3.70112">
        <ele>1165.33</ele>
        <time>2023-09-14T11:57:37Z</time>
      </trkpt>
      <trkpt lat="44.32351" lon="3.70084">
        <ele>1163.33</ele>
        <time>2023-09-14T11:57:53Z</time>
      </trkpt>
      <trkpt lat="44.32354" lon="3.70056">
        <ele>1165.33</ele>
        <time>2023-09-14T11:58:13Z</time>
      </trkpt>
      <trkpt lat="44.32363" lon="3.70025">
        <ele>1166.33</ele>
        <time>2023-09-14T11:58:33Z</time>
      </trkpt>
      <trkpt lat="44.32371" lon="3.69999">
        <ele>1166.33</ele>
        <time>2023-09-14T11:58:49Z</time>
      </trkpt>
      <trkpt lat="44.32384" lon="3.69979">
        <ele>1163.33</ele>
        <time>2023-09-14T11:59:05Z</time>
      </trkpt>
      <trkpt lat="44.32394" lon="3.69958">
        <ele>1156.33</ele>
        <time>2023-09-14T11:59:37Z</time>
      </trkpt>
      <trkpt lat="44.32405" lon="3.69936">
        <ele>1153.33</ele>
        <time>2023-09-14T12:00:17Z</time>
      </trkpt>
      <trkpt lat="44.32417" lon="3.69915">
        <ele>1153.33</ele>
        <time>2023-09-14T12:00:41Z</time>
      </trkpt>
      <trkpt lat="44.32426" lon="3.6989">
        <ele>1152.33</ele>
        <time>2023-09-14T12:00:57Z</time>
      </trkpt>
      <trkpt lat="44.32436" lon="3.69864">
        <ele>1152.33</ele>
        <time>2023-09-14T12:01:21Z</time>
      </trkpt>
      <trkpt lat="44.32449" lon="3.69838">
        <ele>1151.33</ele>
        <time>2023-09-14T12:01:41Z</time>
      </trkpt>
      <trkpt lat="44.32457" lon="3.69814">
        <ele>1149.33</ele>
        <time>2023-09-14T12:02:01Z</time>
      </trkpt>
      <trkpt lat="44.32472" lon="3.69793">
        <ele>1147.33</ele>
        <time>2023-09-14T12:02:21Z</time>
      </trkpt>
      <trkpt lat="44.32483" lon="3.69768">
        <ele>1146.33</ele>
        <time>2023-09-14T12:02:45Z</time>
      </trkpt>
      <trkpt lat="44.32496" lon="3.69746">
        <ele>1144.33</ele>
        <time>2023-09-14T12:03:09Z</time>
      </trkpt>
      <trkpt lat="44.3249" lon="3.69721">
        <ele>1144.33</ele>
        <time>2023-09-14T12:03:37Z</time>
      </trkpt>
      <trkpt lat="44.32474" lon="3.69738">
        <ele>1147.33</ele>
        <time>2023-09-14T12:04:21Z</time>
      </trkpt>
      <trkpt lat="44.32459" lon="3.69753">
        <ele>1146.33</ele>
        <time>2023-09-14T12:04:45Z</time>
      </trkpt>
      <trkpt lat="44.32439" lon="3.69755">
        <ele>1142.33</ele>
        <time>2023-09-14T12:05:17Z</time>
      </trkpt>
      <trkpt lat="44.32453" lon="3.69735">
        <ele>1138.33</ele>
        <time>2023-09-14T12:05:53Z</time>
      </trkpt>
      <trkpt lat="44.32461" lon="3.6971">
        <ele>1136.33</ele>
        <time>2023-09-14T12:06:13Z</time>
      </trkpt>
      <trkpt lat="44.32468" lon="3.69683">
        <ele>1134.33</ele>
        <time>2023-09-14T12:06:37Z</time>
      </trkpt>
      <trkpt lat="44.32473" lon="3.69657">
        <ele>1130.33</ele>
        <time>2023-09-14T12:07:05Z</time>
      </trkpt>
      <trkpt lat="44.32478" lon="3.69627">
        <ele>1129.33</ele>
        <time>2023-09-14T12:07:37Z</time>
      </trkpt>
      <trkpt lat="44.32489" lon="3.69601">
        <ele>1126.33</ele>
        <time>2023-09-14T12:08:01Z</time>
      </trkpt>
      <trkpt lat="44.32496" lon="3.69575">
        <ele>1124.33</ele>
        <time>2023-09-14T12:08:21Z</time>
      </trkpt>
      <trkpt lat="44.32501" lon="3.69549">
        <ele>1122.33</ele>
        <time>2023-09-14T12:08:45Z</time>
      </trkpt>
      <trkpt lat="44.32504" lon="3.69518">
        <ele>1122.33</ele>
        <time>2023-09-14T12:09:09Z</time>
      </trkpt>
      <trkpt lat="44.32508" lon="3.69493">
        <ele>1121.33</ele>
        <time>2023-09-14T12:09:29Z</time>
      </trkpt>
      <trkpt lat="44.32513" lon="3.69465">
        <ele>1118.33</ele>
        <time>2023-09-14T12:09:49Z</time>
      </trkpt>
      <trkpt lat="44.32513" lon="3.69434">
        <ele>1116.33</ele>
        <time>2023-09-14T12:10:13Z</time>
      </trkpt>
      <trkpt lat="44.32516" lon="3.69409">
        <ele>1112.33</ele>
        <time>2023-09-14T12:10:37Z</time>
      </trkpt>
      <trkpt lat="44.32519" lon="3.69381">
        <ele>1111.33</ele>
        <time>2023-09-14T12:10:57Z</time>
      </trkpt>
      <trkpt lat="44.32519" lon="3.69351">
        <ele>1109.33</ele>
        <time>2023-09-14T12:11:17Z</time>
      </trkpt>
      <trkpt lat="44.3252" lon="3.69319">
        <ele>1110.33</ele>
        <time>2023-09-14T12:11:37Z</time>
      </trkpt>
      <trkpt lat="44.32522" lon="3.69292">
        <ele>1111.33</ele>
        <time>2023-09-14T12:11:53Z</time>
      </trkpt>
      <trkpt lat="44.32526" lon="3.69263">
        <ele>1113.33</ele>
        <time>2023-09-14T12:12:17Z</time>
      </trkpt>
      <trkpt lat="44.32532" lon="3.69238">
        <ele>1111.33</ele>
        <time>2023-09-14T12:12:29Z</time>
      </trkpt>
      <trkpt lat="44.32533" lon="3.6921">
        <ele>1107.33</ele>
        <time>2023-09-14T12:13:10Z</time>
      </trkpt>
      <trkpt lat="44.32535" lon="3.69177">
        <ele>1110.33</ele>
        <time>2023-09-14T12:13:30Z</time>
      </trkpt>
      <trkpt lat="44.32541" lon="3.69152">
        <ele>1113.33</ele>
        <time>2023-09-14T12:13:46Z</time>
      </trkpt>
      <trkpt lat="44.32547" lon="3.69127">
        <ele>1116.33</ele>
        <time>2023-09-14T12:14:02Z</time>
      </trkpt>
      <trkpt lat="44.32551" lon="3.69098">
        <ele>1115.33</ele>
        <time>2023-09-14T12:14:18Z</time>
      </trkpt>
      <trkpt lat="44.32549" lon="3.69068">
        <ele>1114.33</ele>
        <time>2023-09-14T12:14:34Z</time>
      </trkpt>
      <trkpt lat="44.32546" lon="3.69037">
        <ele>1114.33</ele>
        <time>2023-09-14T12:14:50Z</time>
      </trkpt>
      <trkpt lat="44.32534" lon="3.69016">
        <ele>1109.33</ele>
        <time>2023-09-14T12:15:02Z</time>
      </trkpt>
      <trkpt lat="44.32523" lon="3.68993">
        <ele>1105.33</ele>
        <time>2023-09-14T12:15:22Z</time>
      </trkpt>
      <trkpt lat="44.32515" lon="3.68965">
        <ele>1101.33</ele>
        <time>2023-09-14T12:15:46Z</time>
      </trkpt>
      <trkpt lat="44.32512" lon="3.68937">
        <ele>1102.33</ele>
        <time>2023-09-14T12:16:06Z</time>
      </trkpt>
      <trkpt lat="44.32507" lon="3.68909">
        <ele>1100.33</ele>
        <time>2023-09-14T12:16:26Z</time>
      </trkpt>
      <trkpt lat="44.32502" lon="3.68882">
        <ele>1098.33</ele>
        <time>2023-09-14T12:16:46Z</time>
      </trkpt>
      <trkpt lat="44.325" lon="3.68851">
        <ele>1097.33</ele>
        <time>2023-09-14T12:17:06Z</time>
      </trkpt>
      <trkpt lat="44.32504" lon="3.68825">
        <ele>1099.33</ele>
        <time>2023-09-14T12:17:22Z</time>
      </trkpt>
      <trkpt lat="44.32503" lon="3.68796">
        <ele>1098.33</ele>
        <time>2023-09-14T12:17:38Z</time>
      </trkpt>
      <trkpt lat="44.32507" lon="3.68765">
        <ele>1096.33</ele>
        <time>2023-09-14T12:17:54Z</time>
      </trkpt>
      <trkpt lat="44.32504" lon="3.68736">
        <ele>1094.33</ele>
        <time>2023-09-14T12:18:14Z</time>
      </trkpt>
      <trkpt lat="44.32507" lon="3.6871">
        <ele>1093.33</ele>
        <time>2023-09-14T12:18:38Z</time>
      </trkpt>
      <trkpt lat="44.32515" lon="3.68683">
        <ele>1090.33</ele>
        <time>2023-09-14T12:19:02Z</time>
      </trkpt>
      <trkpt lat="44.32524" lon="3.68659">
        <ele>1093.33</ele>
        <time>2023-09-14T12:19:22Z</time>
      </trkpt>
      <trkpt lat="44.32531" lon="3.68628">
        <ele>1090.33</ele>
        <time>2023-09-14T12:19:43Z</time>
      </trkpt>
      <trkpt lat="44.32533" lon="3.68602">
        <ele>1085.33</ele>
        <time>2023-09-14T12:20:04Z</time>
      </trkpt>
      <trkpt lat="44.32544" lon="3.68581">
        <ele>1084.33</ele>
        <time>2023-09-14T12:20:20Z</time>
      </trkpt>
      <trkpt lat="44.32547" lon="3.68553">
        <ele>1080.33</ele>
        <time>2023-09-14T12:26:57Z</time>
      </trkpt>
      <trkpt lat="44.3255" lon="3.68523">
        <ele>1079.33</ele>
        <time>2023-09-14T12:27:21Z</time>
      </trkpt>
      <trkpt lat="44.32558" lon="3.68499">
        <ele>1079.33</ele>
        <time>2023-09-14T12:27:37Z</time>
      </trkpt>
      <trkpt lat="44.32565" lon="3.68475">
        <ele>1079.33</ele>
        <time>2023-09-14T12:27:53Z</time>
      </trkpt>
      <trkpt lat="44.32572" lon="3.68447">
        <ele>1080.33</ele>
        <time>2023-09-14T12:28:09Z</time>
      </trkpt>
      <trkpt lat="44.32578" lon="3.68421">
        <ele>1079.33</ele>
        <time>2023-09-14T12:28:25Z</time>
      </trkpt>
      <trkpt lat="44.32586" lon="3.68394">
        <ele>1080.33</ele>
        <time>2023-09-14T12:28:41Z</time>
      </trkpt>
      <trkpt lat="44.32593" lon="3.6837">
        <ele>1080.33</ele>
        <time>2023-09-14T12:28:57Z</time>
      </trkpt>
      <trkpt lat="44.32603" lon="3.68345">
        <ele>1079.33</ele>
        <time>2023-09-14T12:29:13Z</time>
      </trkpt>
      <trkpt lat="44.3261" lon="3.6832">
        <ele>1081.33</ele>
        <time>2023-09-14T12:29:29Z</time>
      </trkpt>
      <trkpt lat="44.32616" lon="3.68294">
        <ele>1083.33</ele>
        <time>2023-09-14T12:29:46Z</time>
      </trkpt>
      <trkpt lat="44.3262" lon="3.68268">
        <ele>1082.33</ele>
        <time>2023-09-14T12:30:02Z</time>
      </trkpt>
      <trkpt lat="44.32622" lon="3.68243">
        <ele>1082.33</ele>
        <time>2023-09-14T12:30:14Z</time>
      </trkpt>
      <trkpt lat="44.32625" lon="3.68217">
        <ele>1085.33</ele>
        <time>2023-09-14T12:30:30Z</time>
      </trkpt>
      <trkpt lat="44.32624" lon="3.68191">
        <ele>1083.33</ele>
        <time>2023-09-14T12:30:46Z</time>
      </trkpt>
      <trkpt lat="44.32627" lon="3.6816">
        <ele>1082.33</ele>
        <time>2023-09-14T12:31:06Z</time>
      </trkpt>
      <trkpt lat="44.32628" lon="3.68132">
        <ele>1082.33</ele>
        <time>2023-09-14T12:31:22Z</time>
      </trkpt>
      <trkpt lat="44.32629" lon="3.68105">
        <ele>1083.33</ele>
        <time>2023-09-14T12:31:38Z</time>
      </trkpt>
      <trkpt lat="44.3263" lon="3.68075">
        <ele>1083.33</ele>
        <time>2023-09-14T12:31:54Z</time>
      </trkpt>
      <trkpt lat="44.32628" lon="3.68047">
        <ele>1081.33</ele>
        <time>2023-09-14T12:32:10Z</time>
      </trkpt>
      <trkpt lat="44.32627" lon="3.68019">
        <ele>1080.33</ele>
        <time>2023-09-14T12:32:30Z</time>
      </trkpt>
      <trkpt lat="44.3263" lon="3.67993">
        <ele>1079.33</ele>
        <time>2023-09-14T12:32:46Z</time>
      </trkpt>
      <trkpt lat="44.32628" lon="3.67965">
        <ele>1081.33</ele>
        <time>2023-09-14T12:33:02Z</time>
      </trkpt>
      <trkpt lat="44.32624" lon="3.67936">
        <ele>1079.33</ele>
        <time>2023-09-14T12:33:18Z</time>
      </trkpt>
      <trkpt lat="44.32624" lon="3.6791">
        <ele>1080.33</ele>
        <time>2023-09-14T12:33:34Z</time>
      </trkpt>
      <trkpt lat="44.32622" lon="3.67883">
        <ele>1079.33</ele>
        <time>2023-09-14T12:33:54Z</time>
      </trkpt>
      <trkpt lat="44.32626" lon="3.67854">
        <ele>1077.33</ele>
        <time>2023-09-14T12:34:14Z</time>
      </trkpt>
      <trkpt lat="44.32636" lon="3.67826">
        <ele>1073.33</ele>
        <time>2023-09-14T12:34:30Z</time>
      </trkpt>
      <trkpt lat="44.32642" lon="3.678">
        <ele>1074.33</ele>
        <time>2023-09-14T12:34:46Z</time>
      </trkpt>
      <trkpt lat="44.32646" lon="3.67775">
        <ele>1073.33</ele>
        <time>2023-09-14T12:35:02Z</time>
      </trkpt>
      <trkpt lat="44.32651" lon="3.67749">
        <ele>1073.33</ele>
        <time>2023-09-14T12:35:18Z</time>
      </trkpt>
      <trkpt lat="44.3266" lon="3.67722">
        <ele>1070.33</ele>
        <time>2023-09-14T12:35:34Z</time>
      </trkpt>
      <trkpt lat="44.32664" lon="3.67692">
        <ele>1070.33</ele>
        <time>2023-09-14T12:35:54Z</time>
      </trkpt>
      <trkpt lat="44.32666" lon="3.67664">
        <ele>1069.33</ele>
        <time>2023-09-14T12:36:10Z</time>
      </trkpt>
      <trkpt lat="44.32665" lon="3.67637">
        <ele>1070.33</ele>
        <time>2023-09-14T12:36:26Z</time>
      </trkpt>
      <trkpt lat="44.32668" lon="3.67608">
        <ele>1070.33</ele>
        <time>2023-09-14T12:36:42Z</time>
      </trkpt>
      <trkpt lat="44.32667" lon="3.6758">
        <ele>1069.33</ele>
        <time>2023-09-14T12:37:02Z</time>
      </trkpt>
      <trkpt lat="44.3267" lon="3.67552">
        <ele>1069.33</ele>
        <time>2023-09-14T12:37:18Z</time>
      </trkpt>
      <trkpt lat="44.32665" lon="3.67525">
        <ele>1069.33</ele>
        <time>2023-09-14T12:37:34Z</time>
      </trkpt>
      <trkpt lat="44.32662" lon="3.67499">
        <ele>1071.33</ele>
        <time>2023-09-14T12:37:50Z</time>
      </trkpt>
      <trkpt lat="44.32654" lon="3.6747">
        <ele>1074.33</ele>
        <time>2023-09-14T12:38:06Z</time>
      </trkpt>
      <trkpt lat="44.32645" lon="3.67444">
        <ele>1069.33</ele>
        <time>2023-09-14T12:38:22Z</time>
      </trkpt>
      <trkpt lat="44.32628" lon="3.67425">
        <ele>1066.33</ele>
        <time>2023-09-14T12:38:34Z</time>
      </trkpt>
      <trkpt lat="44.32616" lon="3.67397">
        <ele>1066.33</ele>
        <time>2023-09-14T12:38:50Z</time>
      </trkpt>
      <trkpt lat="44.32602" lon="3.67376">
        <ele>1065.33</ele>
        <time>2023-09-14T12:39:06Z</time>
      </trkpt>
      <trkpt lat="44.32591" lon="3.67356">
        <ele>1065.33</ele>
        <time>2023-09-14T12:39:22Z</time>
      </trkpt>
      <trkpt lat="44.32578" lon="3.67336">
        <ele>1064.33</ele>
        <time>2023-09-14T12:39:38Z</time>
      </trkpt>
      <trkpt lat="44.32561" lon="3.67316">
        <ele>1064.33</ele>
        <time>2023-09-14T12:39:54Z</time>
      </trkpt>
      <trkpt lat="44.32546" lon="3.67299">
        <ele>1065.33</ele>
        <time>2023-09-14T12:40:10Z</time>
      </trkpt>
      <trkpt lat="44.3253" lon="3.67282">
        <ele>1062.33</ele>
        <time>2023-09-14T12:40:26Z</time>
      </trkpt>
      <trkpt lat="44.32517" lon="3.67257">
        <ele>1061.33</ele>
        <time>2023-09-14T12:40:43Z</time>
      </trkpt>
      <trkpt lat="44.32508" lon="3.67232">
        <ele>1059.33</ele>
        <time>2023-09-14T12:41:01Z</time>
      </trkpt>
      <trkpt lat="44.32497" lon="3.67209">
        <ele>1059.33</ele>
        <time>2023-09-14T12:41:17Z</time>
      </trkpt>
      <trkpt lat="44.32491" lon="3.67181">
        <ele>1056.33</ele>
        <time>2023-09-14T12:41:33Z</time>
      </trkpt>
      <trkpt lat="44.32485" lon="3.67154">
        <ele>1054.33</ele>
        <time>2023-09-14T12:41:49Z</time>
      </trkpt>
      <trkpt lat="44.3249" lon="3.67128">
        <ele>1052.33</ele>
        <time>2023-09-14T12:42:05Z</time>
      </trkpt>
      <trkpt lat="44.32497" lon="3.67103">
        <ele>1051.33</ele>
        <time>2023-09-14T12:42:21Z</time>
      </trkpt>
      <trkpt lat="44.32498" lon="3.67076">
        <ele>1052.33</ele>
        <time>2023-09-14T12:42:37Z</time>
      </trkpt>
      <trkpt lat="44.32496" lon="3.67048">
        <ele>1053.33</ele>
        <time>2023-09-14T12:42:53Z</time>
      </trkpt>
      <trkpt lat="44.32479" lon="3.67031">
        <ele>1052.33</ele>
        <time>2023-09-14T12:43:09Z</time>
      </trkpt>
      <trkpt lat="44.32469" lon="3.67009">
        <ele>1050.33</ele>
        <time>2023-09-14T12:43:25Z</time>
      </trkpt>
      <trkpt lat="44.32466" lon="3.66981">
        <ele>1049.33</ele>
        <time>2023-09-14T12:43:41Z</time>
      </trkpt>
      <trkpt lat="44.32464" lon="3.66954">
        <ele>1046.33</ele>
        <time>2023-09-14T12:43:57Z</time>
      </trkpt>
      <trkpt lat="44.32468" lon="3.66926">
        <ele>1046.33</ele>
        <time>2023-09-14T12:44:13Z</time>
      </trkpt>
      <trkpt lat="44.3247" lon="3.66897">
        <ele>1047.33</ele>
        <time>2023-09-14T12:44:30Z</time>
      </trkpt>
      <trkpt lat="44.32475" lon="3.66872">
        <ele>1047.33</ele>
        <time>2023-09-14T12:44:46Z</time>
      </trkpt>
      <trkpt lat="44.3248" lon="3.66845">
        <ele>1045.33</ele>
        <time>2023-09-14T12:45:02Z</time>
      </trkpt>
      <trkpt lat="44.32485" lon="3.66821">
        <ele>1045.33</ele>
        <time>2023-09-14T12:45:14Z</time>
      </trkpt>
      <trkpt lat="44.32486" lon="3.66795">
        <ele>1045.33</ele>
        <time>2023-09-14T12:45:30Z</time>
      </trkpt>
      <trkpt lat="44.32486" lon="3.66768">
        <ele>1048.33</ele>
        <time>2023-09-14T12:45:46Z</time>
      </trkpt>
      <trkpt lat="44.32491" lon="3.6674">
        <ele>1048.33</ele>
        <time>2023-09-14T12:46:02Z</time>
      </trkpt>
      <trkpt lat="44.32495" lon="3.66711">
        <ele>1047.33</ele>
        <time>2023-09-14T12:46:18Z</time>
      </trkpt>
      <trkpt lat="44.32503" lon="3.66688">
        <ele>1047.33</ele>
        <time>2023-09-14T12:46:34Z</time>
      </trkpt>
      <trkpt lat="44.32514" lon="3.66667">
        <ele>1045.33</ele>
        <time>2023-09-14T12:46:50Z</time>
      </trkpt>
      <trkpt lat="44.32526" lon="3.66645">
        <ele>1044.33</ele>
        <time>2023-09-14T12:47:02Z</time>
      </trkpt>
      <trkpt lat="44.32535" lon="3.66621">
        <ele>1044.33</ele>
        <time>2023-09-14T12:47:18Z</time>
      </trkpt>
      <trkpt lat="44.32545" lon="3.66596">
        <ele>1046.33</ele>
        <time>2023-09-14T12:47:42Z</time>
      </trkpt>
      <trkpt lat="44.32556" lon="3.66575">
        <ele>1046.33</ele>
        <time>2023-09-14T12:47:58Z</time>
      </trkpt>
      <trkpt lat="44.32567" lon="3.66553">
        <ele>1047.33</ele>
        <time>2023-09-14T12:48:10Z</time>
      </trkpt>
      <trkpt lat="44.3258" lon="3.66532">
        <ele>1045.33</ele>
        <time>2023-09-14T12:48:22Z</time>
      </trkpt>
      <trkpt lat="44.32591" lon="3.6651">
        <ele>1044.33</ele>
        <time>2023-09-14T12:48:42Z</time>
      </trkpt>
      <trkpt lat="44.32606" lon="3.66486">
        <ele>1048.33</ele>
        <time>2023-09-14T12:49:06Z</time>
      </trkpt>
      <trkpt lat="44.3262" lon="3.66465">
        <ele>1047.33</ele>
        <time>2023-09-14T12:49:22Z</time>
      </trkpt>
      <trkpt lat="44.32634" lon="3.66443">
        <ele>1044.33</ele>
        <time>2023-09-14T12:49:34Z</time>
      </trkpt>
      <trkpt lat="44.32646" lon="3.6642">
        <ele>1041.33</ele>
        <time>2023-09-14T12:49:46Z</time>
      </trkpt>
      <trkpt lat="44.32657" lon="3.66394">
        <ele>1043.33</ele>
        <time>2023-09-14T12:50:06Z</time>
      </trkpt>
      <trkpt lat="44.32673" lon="3.66375">
        <ele>1047.33</ele>
        <time>2023-09-14T12:50:30Z</time>
      </trkpt>
      <trkpt lat="44.32691" lon="3.6636">
        <ele>1052.33</ele>
        <time>2023-09-14T12:50:50Z</time>
      </trkpt>
      <trkpt lat="44.3271" lon="3.66346">
        <ele>1055.33</ele>
        <time>2023-09-14T12:51:06Z</time>
      </trkpt>
      <trkpt lat="44.32733" lon="3.66344">
        <ele>1057.33</ele>
        <time>2023-09-14T12:51:26Z</time>
      </trkpt>
      <trkpt lat="44.32754" lon="3.66345">
        <ele>1054.33</ele>
        <time>2023-09-14T12:51:46Z</time>
      </trkpt>
      <trkpt lat="44.32778" lon="3.66338">
        <ele>1049.33</ele>
        <time>2023-09-14T12:52:02Z</time>
      </trkpt>
      <trkpt lat="44.32787" lon="3.66314">
        <ele>1045.33</ele>
        <time>2023-09-14T12:52:10Z</time>
      </trkpt>
      <trkpt lat="44.32802" lon="3.66287">
        <ele>1039.33</ele>
        <time>2023-09-14T12:52:22Z</time>
      </trkpt>
      <trkpt lat="44.32809" lon="3.66256">
        <ele>1043.33</ele>
        <time>2023-09-14T12:52:38Z</time>
      </trkpt>
      <trkpt lat="44.32811" lon="3.6623">
        <ele>1037.33</ele>
        <time>2023-09-14T12:52:54Z</time>
      </trkpt>
      <trkpt lat="44.32816" lon="3.66202">
        <ele>1039.33</ele>
        <time>2023-09-14T12:53:10Z</time>
      </trkpt>
      <trkpt lat="44.32808" lon="3.66175">
        <ele>1039.33</ele>
        <time>2023-09-14T12:53:30Z</time>
      </trkpt>
      <trkpt lat="44.32811" lon="3.66146">
        <ele>1038.33</ele>
        <time>2023-09-14T12:53:46Z</time>
      </trkpt>
      <trkpt lat="44.32813" lon="3.66117">
        <ele>1035.33</ele>
        <time>2023-09-14T12:54:06Z</time>
      </trkpt>
      <trkpt lat="44.3282" lon="3.66089">
        <ele>1035.33</ele>
        <time>2023-09-14T12:54:22Z</time>
      </trkpt>
      <trkpt lat="44.3283" lon="3.66066">
        <ele>1034.33</ele>
        <time>2023-09-14T12:54:42Z</time>
      </trkpt>
      <trkpt lat="44.32841" lon="3.66042">
        <ele>1031.33</ele>
        <time>2023-09-14T12:54:58Z</time>
      </trkpt>
      <trkpt lat="44.32854" lon="3.66024">
        <ele>1030.33</ele>
        <time>2023-09-14T12:55:14Z</time>
      </trkpt>
      <trkpt lat="44.3286" lon="3.65999">
        <ele>1030.33</ele>
        <time>2023-09-14T12:55:30Z</time>
      </trkpt>
      <trkpt lat="44.32873" lon="3.65973">
        <ele>1031.33</ele>
        <time>2023-09-14T12:55:46Z</time>
      </trkpt>
      <trkpt lat="44.32884" lon="3.65946">
        <ele>1029.33</ele>
        <time>2023-09-14T12:56:06Z</time>
      </trkpt>
      <trkpt lat="44.32895" lon="3.6592">
        <ele>1029.33</ele>
        <time>2023-09-14T12:56:22Z</time>
      </trkpt>
      <trkpt lat="44.32904" lon="3.65892">
        <ele>1030.33</ele>
        <time>2023-09-14T12:56:38Z</time>
      </trkpt>
      <trkpt lat="44.32904" lon="3.65865">
        <ele>1030.33</ele>
        <time>2023-09-14T12:56:54Z</time>
      </trkpt>
      <trkpt lat="44.32902" lon="3.65836">
        <ele>1029.33</ele>
        <time>2023-09-14T12:57:10Z</time>
      </trkpt>
      <trkpt lat="44.32907" lon="3.65808">
        <ele>1030.33</ele>
        <time>2023-09-14T12:57:30Z</time>
      </trkpt>
      <trkpt lat="44.3292" lon="3.65786">
        <ele>1029.33</ele>
        <time>2023-09-14T12:57:46Z</time>
      </trkpt>
      <trkpt lat="44.32927" lon="3.65758">
        <ele>1029.33</ele>
        <time>2023-09-14T12:58:02Z</time>
      </trkpt>
      <trkpt lat="44.32935" lon="3.65731">
        <ele>1028.33</ele>
        <time>2023-09-14T12:58:18Z</time>
      </trkpt>
      <trkpt lat="44.3294" lon="3.65704">
        <ele>1028.33</ele>
        <time>2023-09-14T12:58:34Z</time>
      </trkpt>
      <trkpt lat="44.32931" lon="3.65676">
        <ele>1027.33</ele>
        <time>2023-09-14T12:58:50Z</time>
      </trkpt>
      <trkpt lat="44.32925" lon="3.6565">
        <ele>1029.33</ele>
        <time>2023-09-14T13:01:04Z</time>
      </trkpt>
      <trkpt lat="44.32916" lon="3.65621">
        <ele>1025.33</ele>
        <time>2023-09-14T13:01:40Z</time>
      </trkpt>
      <trkpt lat="44.32907" lon="3.65597">
        <ele>1027.33</ele>
        <time>2023-09-14T13:01:56Z</time>
      </trkpt>
      <trkpt lat="44.32896" lon="3.65571">
        <ele>1028.33</ele>
        <time>2023-09-14T13:02:12Z</time>
      </trkpt>
      <trkpt lat="44.32882" lon="3.65554">
        <ele>1027.33</ele>
        <time>2023-09-14T13:02:28Z</time>
      </trkpt>
      <trkpt lat="44.32867" lon="3.65533">
        <ele>1027.33</ele>
        <time>2023-09-14T13:02:44Z</time>
      </trkpt>
      <trkpt lat="44.32862" lon="3.65508">
        <ele>1026.33</ele>
        <time>2023-09-14T13:03:00Z</time>
      </trkpt>
      <trkpt lat="44.32861" lon="3.65483">
        <ele>1025.33</ele>
        <time>2023-09-14T13:03:16Z</time>
      </trkpt>
      <trkpt lat="44.32857" lon="3.65457">
        <ele>1026.33</ele>
        <time>2023-09-14T13:03:32Z</time>
      </trkpt>
      <trkpt lat="44.32848" lon="3.65427">
        <ele>1024.33</ele>
        <time>2023-09-14T13:03:52Z</time>
      </trkpt>
      <trkpt lat="44.32841" lon="3.65403">
        <ele>1023.33</ele>
        <time>2023-09-14T13:04:08Z</time>
      </trkpt>
      <trkpt lat="44.32836" lon="3.65377">
        <ele>1020.33</ele>
        <time>2023-09-14T13:04:24Z</time>
      </trkpt>
      <trkpt lat="44.32839" lon="3.65351">
        <ele>1019.33</ele>
        <time>2023-09-14T13:04:40Z</time>
      </trkpt>
      <trkpt lat="44.32855" lon="3.65328">
        <ele>1019.33</ele>
        <time>2023-09-14T13:05:00Z</time>
      </trkpt>
      <trkpt lat="44.32872" lon="3.65313">
        <ele>1020.33</ele>
        <time>2023-09-14T13:05:20Z</time>
      </trkpt>
      <trkpt lat="44.32892" lon="3.65299">
        <ele>1021.33</ele>
        <time>2023-09-14T13:05:40Z</time>
      </trkpt>
      <trkpt lat="44.32909" lon="3.65283">
        <ele>1022.33</ele>
        <time>2023-09-14T13:06:00Z</time>
      </trkpt>
      <trkpt lat="44.32925" lon="3.65267">
        <ele>1023.33</ele>
        <time>2023-09-14T13:06:16Z</time>
      </trkpt>
      <trkpt lat="44.32943" lon="3.65245">
        <ele>1021.33</ele>
        <time>2023-09-14T13:06:36Z</time>
      </trkpt>
      <trkpt lat="44.32957" lon="3.65226">
        <ele>1020.33</ele>
        <time>2023-09-14T13:06:48Z</time>
      </trkpt>
      <trkpt lat="44.32972" lon="3.65204">
        <ele>1015.33</ele>
        <time>2023-09-14T13:07:04Z</time>
      </trkpt>
      <trkpt lat="44.32984" lon="3.65182">
        <ele>1015.33</ele>
        <time>2023-09-14T13:07:20Z</time>
      </trkpt>
      <trkpt lat="44.32996" lon="3.65158">
        <ele>1016.33</ele>
        <time>2023-09-14T13:07:36Z</time>
      </trkpt>
      <trkpt lat="44.32998" lon="3.6513">
        <ele>1016.33</ele>
        <time>2023-09-14T13:07:56Z</time>
      </trkpt>
      <trkpt lat="44.32998" lon="3.65104">
        <ele>1017.33</ele>
        <time>2023-09-14T13:08:12Z</time>
      </trkpt>
      <trkpt lat="44.32992" lon="3.6508">
        <ele>1015.33</ele>
        <time>2023-09-14T13:08:28Z</time>
      </trkpt>
      <trkpt lat="44.32986" lon="3.65056">
        <ele>1014.33</ele>
        <time>2023-09-14T13:08:40Z</time>
      </trkpt>
      <trkpt lat="44.32968" lon="3.65035">
        <ele>1014.33</ele>
        <time>2023-09-14T13:08:56Z</time>
      </trkpt>
      <trkpt lat="44.32951" lon="3.65021">
        <ele>1011.33</ele>
        <time>2023-09-14T13:09:12Z</time>
      </trkpt>
      <trkpt lat="44.32934" lon="3.65">
        <ele>1007.33</ele>
        <time>2023-09-14T13:09:32Z</time>
      </trkpt>
      <trkpt lat="44.32917" lon="3.64981">
        <ele>1001.33</ele>
        <time>2023-09-14T13:09:48Z</time>
      </trkpt>
      <trkpt lat="44.32901" lon="3.64966">
        <ele>1001.33</ele>
        <time>2023-09-14T13:10:04Z</time>
      </trkpt>
      <trkpt lat="44.32887" lon="3.64947">
        <ele>998.33</ele>
        <time>2023-09-14T13:10:20Z</time>
      </trkpt>
      <trkpt lat="44.32876" lon="3.64924">
        <ele>997.33</ele>
        <time>2023-09-14T13:10:36Z</time>
      </trkpt>
      <trkpt lat="44.3287" lon="3.64893">
        <ele>995.33</ele>
        <time>2023-09-14T13:10:56Z</time>
      </trkpt>
      <trkpt lat="44.32871" lon="3.64865">
        <ele>993.33</ele>
        <time>2023-09-14T13:11:12Z</time>
      </trkpt>
      <trkpt lat="44.32872" lon="3.64837">
        <ele>994.33</ele>
        <time>2023-09-14T13:11:28Z</time>
      </trkpt>
      <trkpt lat="44.32873" lon="3.64806">
        <ele>997.33</ele>
        <time>2023-09-14T13:11:44Z</time>
      </trkpt>
      <trkpt lat="44.32876" lon="3.6478">
        <ele>994.33</ele>
        <time>2023-09-14T13:12:00Z</time>
      </trkpt>
      <trkpt lat="44.32883" lon="3.64752">
        <ele>995.33</ele>
        <time>2023-09-14T13:12:16Z</time>
      </trkpt>
      <trkpt lat="44.3289" lon="3.64722">
        <ele>992.33</ele>
        <time>2023-09-14T13:12:36Z</time>
      </trkpt>
      <trkpt lat="44.32903" lon="3.64693">
        <ele>993.33</ele>
        <time>2023-09-14T13:12:57Z</time>
      </trkpt>
      <trkpt lat="44.3292" lon="3.64672">
        <ele>989.33</ele>
        <time>2023-09-14T13:13:17Z</time>
      </trkpt>
      <trkpt lat="44.32937" lon="3.64658">
        <ele>986.33</ele>
        <time>2023-09-14T13:13:37Z</time>
      </trkpt>
      <trkpt lat="44.3295" lon="3.64639">
        <ele>985.33</ele>
        <time>2023-09-14T13:13:53Z</time>
      </trkpt>
      <trkpt lat="44.32963" lon="3.64618">
        <ele>986.33</ele>
        <time>2023-09-14T13:14:09Z</time>
      </trkpt>
      <trkpt lat="44.32976" lon="3.64597">
        <ele>986.33</ele>
        <time>2023-09-14T13:14:25Z</time>
      </trkpt>
      <trkpt lat="44.32983" lon="3.6457">
        <ele>987.33</ele>
        <time>2023-09-14T13:14:41Z</time>
      </trkpt>
      <trkpt lat="44.32986" lon="3.64543">
        <ele>987.33</ele>
        <time>2023-09-14T13:14:57Z</time>
      </trkpt>
      <trkpt lat="44.32991" lon="3.64516">
        <ele>985.33</ele>
        <time>2023-09-14T13:15:13Z</time>
      </trkpt>
      <trkpt lat="44.32989" lon="3.64491">
        <ele>985.33</ele>
        <time>2023-09-14T13:15:29Z</time>
      </trkpt>
      <trkpt lat="44.32987" lon="3.64464">
        <ele>981.33</ele>
        <time>2023-09-14T13:15:45Z</time>
      </trkpt>
      <trkpt lat="44.32983" lon="3.64437">
        <ele>977.33</ele>
        <time>2023-09-14T13:16:01Z</time>
      </trkpt>
      <trkpt lat="44.32979" lon="3.64411">
        <ele>974.33</ele>
        <time>2023-09-14T13:16:17Z</time>
      </trkpt>
      <trkpt lat="44.32974" lon="3.64386">
        <ele>970.33</ele>
        <time>2023-09-14T13:16:33Z</time>
      </trkpt>
      <trkpt lat="44.32967" lon="3.64359">
        <ele>967.33</ele>
        <time>2023-09-14T13:16:49Z</time>
      </trkpt>
      <trkpt lat="44.3296" lon="3.64333">
        <ele>964.33</ele>
        <time>2023-09-14T13:17:05Z</time>
      </trkpt>
      <trkpt lat="44.3295" lon="3.64308">
        <ele>961.33</ele>
        <time>2023-09-14T13:17:21Z</time>
      </trkpt>
      <trkpt lat="44.32941" lon="3.64283">
        <ele>959.33</ele>
        <time>2023-09-14T13:17:37Z</time>
      </trkpt>
      <trkpt lat="44.3293" lon="3.64255">
        <ele>958.33</ele>
        <time>2023-09-14T13:17:53Z</time>
      </trkpt>
      <trkpt lat="44.32917" lon="3.64229">
        <ele>959.33</ele>
        <time>2023-09-14T13:18:09Z</time>
      </trkpt>
      <trkpt lat="44.3291" lon="3.64206">
        <ele>959.33</ele>
        <time>2023-09-14T13:18:29Z</time>
      </trkpt>
      <trkpt lat="44.32911" lon="3.64175">
        <ele>958.33</ele>
        <time>2023-09-14T13:18:46Z</time>
      </trkpt>
      <trkpt lat="44.32916" lon="3.64148">
        <ele>958.33</ele>
        <time>2023-09-14T13:19:02Z</time>
      </trkpt>
      <trkpt lat="44.32925" lon="3.64122">
        <ele>960.33</ele>
        <time>2023-09-14T13:19:18Z</time>
      </trkpt>
      <trkpt lat="44.32929" lon="3.64092">
        <ele>962.33</ele>
        <time>2023-09-14T13:19:34Z</time>
      </trkpt>
      <trkpt lat="44.3293" lon="3.64062">
        <ele>960.33</ele>
        <time>2023-09-14T13:19:50Z</time>
      </trkpt>
      <trkpt lat="44.32929" lon="3.64037">
        <ele>959.33</ele>
        <time>2023-09-14T13:20:06Z</time>
      </trkpt>
      <trkpt lat="44.32926" lon="3.64006">
        <ele>957.33</ele>
        <time>2023-09-14T13:20:22Z</time>
      </trkpt>
      <trkpt lat="44.32928" lon="3.63976">
        <ele>954.33</ele>
        <time>2023-09-14T13:20:38Z</time>
      </trkpt>
      <trkpt lat="44.32926" lon="3.63949">
        <ele>956.33</ele>
        <time>2023-09-14T13:20:54Z</time>
      </trkpt>
      <trkpt lat="44.32927" lon="3.63921">
        <ele>957.33</ele>
        <time>2023-09-14T13:21:10Z</time>
      </trkpt>
      <trkpt lat="44.32926" lon="3.63893">
        <ele>956.33</ele>
        <time>2023-09-14T13:21:26Z</time>
      </trkpt>
      <trkpt lat="44.32929" lon="3.63862">
        <ele>953.33</ele>
        <time>2023-09-14T13:21:42Z</time>
      </trkpt>
      <trkpt lat="44.3293" lon="3.63834">
        <ele>954.33</ele>
        <time>2023-09-14T13:21:58Z</time>
      </trkpt>
      <trkpt lat="44.32933" lon="3.63808">
        <ele>948.33</ele>
        <time>2023-09-14T13:22:14Z</time>
      </trkpt>
      <trkpt lat="44.32938" lon="3.63778">
        <ele>942.33</ele>
        <time>2023-09-14T13:22:30Z</time>
      </trkpt>
      <trkpt lat="44.32947" lon="3.63753">
        <ele>938.33</ele>
        <time>2023-09-14T13:22:46Z</time>
      </trkpt>
      <trkpt lat="44.32959" lon="3.63726">
        <ele>935.33</ele>
        <time>2023-09-14T13:23:06Z</time>
      </trkpt>
      <trkpt lat="44.32972" lon="3.63702">
        <ele>933.33</ele>
        <time>2023-09-14T13:23:22Z</time>
      </trkpt>
      <trkpt lat="44.3298" lon="3.63674">
        <ele>932.33</ele>
        <time>2023-09-14T13:23:38Z</time>
      </trkpt>
      <trkpt lat="44.32981" lon="3.63643">
        <ele>931.33</ele>
        <time>2023-09-14T13:23:54Z</time>
      </trkpt>
      <trkpt lat="44.32966" lon="3.63618">
        <ele>927.33</ele>
        <time>2023-09-14T13:24:10Z</time>
      </trkpt>
      <trkpt lat="44.32948" lon="3.63609">
        <ele>923.33</ele>
        <time>2023-09-14T13:24:22Z</time>
      </trkpt>
      <trkpt lat="44.32926" lon="3.636">
        <ele>923.33</ele>
        <time>2023-09-14T13:24:38Z</time>
      </trkpt>
      <trkpt lat="44.3291" lon="3.63583">
        <ele>920.33</ele>
        <time>2023-09-14T13:25:26Z</time>
      </trkpt>
      <trkpt lat="44.32904" lon="3.63556">
        <ele>921.33</ele>
        <time>2023-09-14T13:25:46Z</time>
      </trkpt>
      <trkpt lat="44.32891" lon="3.63534">
        <ele>919.33</ele>
        <time>2023-09-14T13:26:02Z</time>
      </trkpt>
      <trkpt lat="44.32883" lon="3.63508">
        <ele>916.33</ele>
        <time>2023-09-14T13:26:18Z</time>
      </trkpt>
      <trkpt lat="44.32877" lon="3.6348">
        <ele>914.33</ele>
        <time>2023-09-14T13:26:38Z</time>
      </trkpt>
      <trkpt lat="44.32883" lon="3.63452">
        <ele>914.33</ele>
        <time>2023-09-14T13:26:54Z</time>
      </trkpt>
      <trkpt lat="44.32887" lon="3.63426">
        <ele>914.33</ele>
        <time>2023-09-14T13:27:10Z</time>
      </trkpt>
      <trkpt lat="44.32889" lon="3.634">
        <ele>913.33</ele>
        <time>2023-09-14T13:27:26Z</time>
      </trkpt>
      <trkpt lat="44.32896" lon="3.63372">
        <ele>912.33</ele>
        <time>2023-09-14T13:27:42Z</time>
      </trkpt>
      <trkpt lat="44.32898" lon="3.63346">
        <ele>909.33</ele>
        <time>2023-09-14T13:27:58Z</time>
      </trkpt>
      <trkpt lat="44.32904" lon="3.63317">
        <ele>909.33</ele>
        <time>2023-09-14T13:28:15Z</time>
      </trkpt>
      <trkpt lat="44.32912" lon="3.63293">
        <ele>907.33</ele>
        <time>2023-09-14T13:28:31Z</time>
      </trkpt>
      <trkpt lat="44.32923" lon="3.6327">
        <ele>904.33</ele>
        <time>2023-09-14T13:28:47Z</time>
      </trkpt>
      <trkpt lat="44.32934" lon="3.63245">
        <ele>898.33</ele>
        <time>2023-09-14T13:29:03Z</time>
      </trkpt>
      <trkpt lat="44.32947" lon="3.63224">
        <ele>896.33</ele>
        <time>2023-09-14T13:29:19Z</time>
      </trkpt>
      <trkpt lat="44.32961" lon="3.632">
        <ele>897.33</ele>
        <time>2023-09-14T13:29:35Z</time>
      </trkpt>
      <trkpt lat="44.32973" lon="3.63173">
        <ele>898.33</ele>
        <time>2023-09-14T13:29:51Z</time>
      </trkpt>
      <trkpt lat="44.32978" lon="3.63148">
        <ele>901.33</ele>
        <time>2023-09-14T13:30:07Z</time>
      </trkpt>
      <trkpt lat="44.32984" lon="3.6312">
        <ele>900.33</ele>
        <time>2023-09-14T13:30:27Z</time>
      </trkpt>
      <trkpt lat="44.3299" lon="3.63092">
        <ele>898.33</ele>
        <time>2023-09-14T13:30:43Z</time>
      </trkpt>
      <trkpt lat="44.32995" lon="3.63061">
        <ele>899.33</ele>
        <time>2023-09-14T13:31:03Z</time>
      </trkpt>
      <trkpt lat="44.33006" lon="3.63035">
        <ele>893.33</ele>
        <time>2023-09-14T13:31:23Z</time>
      </trkpt>
      <trkpt lat="44.33021" lon="3.63018">
        <ele>893.33</ele>
        <time>2023-09-14T13:31:43Z</time>
      </trkpt>
      <trkpt lat="44.33039" lon="3.63008">
        <ele>894.33</ele>
        <time>2023-09-14T13:32:03Z</time>
      </trkpt>
      <trkpt lat="44.33058" lon="3.63003">
        <ele>892.33</ele>
        <time>2023-09-14T13:32:23Z</time>
      </trkpt>
      <trkpt lat="44.33078" lon="3.63003">
        <ele>887.33</ele>
        <time>2023-09-14T13:32:39Z</time>
      </trkpt>
      <trkpt lat="44.33096" lon="3.62993">
        <ele>886.33</ele>
        <time>2023-09-14T13:32:55Z</time>
      </trkpt>
      <trkpt lat="44.33111" lon="3.62976">
        <ele>882.33</ele>
        <time>2023-09-14T13:34:27Z</time>
      </trkpt>
      <trkpt lat="44.33122" lon="3.62955">
        <ele>879.33</ele>
        <time>2023-09-14T13:34:47Z</time>
      </trkpt>
      <trkpt lat="44.33129" lon="3.62926">
        <ele>877.33</ele>
        <time>2023-09-14T13:35:15Z</time>
      </trkpt>
      <trkpt lat="44.33127" lon="3.62894">
        <ele>878.33</ele>
        <time>2023-09-14T13:35:35Z</time>
      </trkpt>
      <trkpt lat="44.33121" lon="3.6287">
        <ele>879.33</ele>
        <time>2023-09-14T13:36:19Z</time>
      </trkpt>
      <trkpt lat="44.33125" lon="3.62843">
        <ele>877.33</ele>
        <time>2023-09-14T13:36:59Z</time>
      </trkpt>
      <trkpt lat="44.33121" lon="3.62815">
        <ele>878.33</ele>
        <time>2023-09-14T13:37:15Z</time>
      </trkpt>
      <trkpt lat="44.3311" lon="3.62793">
        <ele>878.33</ele>
        <time>2023-09-14T13:37:32Z</time>
      </trkpt>
      <trkpt lat="44.33105" lon="3.62766">
        <ele>877.33</ele>
        <time>2023-09-14T13:37:48Z</time>
      </trkpt>
      <trkpt lat="44.331" lon="3.6274">
        <ele>877.33</ele>
        <time>2023-09-14T13:38:04Z</time>
      </trkpt>
      <trkpt lat="44.33098" lon="3.62715">
        <ele>876.33</ele>
        <time>2023-09-14T13:38:20Z</time>
      </trkpt>
      <trkpt lat="44.33093" lon="3.6269">
        <ele>876.33</ele>
        <time>2023-09-14T13:38:36Z</time>
      </trkpt>
      <trkpt lat="44.33098" lon="3.62665">
        <ele>879.33</ele>
        <time>2023-09-14T13:38:52Z</time>
      </trkpt>
      <trkpt lat="44.33108" lon="3.62641">
        <ele>877.33</ele>
        <time>2023-09-14T13:39:12Z</time>
      </trkpt>
      <trkpt lat="44.33115" lon="3.62612">
        <ele>875.33</ele>
        <time>2023-09-14T13:39:28Z</time>
      </trkpt>
      <trkpt lat="44.33118" lon="3.62584">
        <ele>875.33</ele>
        <time>2023-09-14T13:39:44Z</time>
      </trkpt>
      <trkpt lat="44.33122" lon="3.62559">
        <ele>877.33</ele>
        <time>2023-09-14T13:40:00Z</time>
      </trkpt>
      <trkpt lat="44.33137" lon="3.62538">
        <ele>878.33</ele>
        <time>2023-09-14T13:40:20Z</time>
      </trkpt>
      <trkpt lat="44.33151" lon="3.62512">
        <ele>876.33</ele>
        <time>2023-09-14T13:40:40Z</time>
      </trkpt>
      <trkpt lat="44.33162" lon="3.62486">
        <ele>878.33</ele>
        <time>2023-09-14T13:40:56Z</time>
      </trkpt>
      <trkpt lat="44.33173" lon="3.62462">
        <ele>874.33</ele>
        <time>2023-09-14T13:41:12Z</time>
      </trkpt>
      <trkpt lat="44.33191" lon="3.62446">
        <ele>877.33</ele>
        <time>2023-09-14T13:41:32Z</time>
      </trkpt>
      <trkpt lat="44.33212" lon="3.62451">
        <ele>873.33</ele>
        <time>2023-09-14T13:41:56Z</time>
      </trkpt>
      <trkpt lat="44.33233" lon="3.62448">
        <ele>871.33</ele>
        <time>2023-09-14T13:42:13Z</time>
      </trkpt>
      <trkpt lat="44.33253" lon="3.6246">
        <ele>866.33</ele>
        <time>2023-09-14T13:42:33Z</time>
      </trkpt>
      <trkpt lat="44.33272" lon="3.62466">
        <ele>865.33</ele>
        <time>2023-09-14T13:42:53Z</time>
      </trkpt>
      <trkpt lat="44.33291" lon="3.62475">
        <ele>864.33</ele>
        <time>2023-09-14T13:43:09Z</time>
      </trkpt>
      <trkpt lat="44.33311" lon="3.6248">
        <ele>864.33</ele>
        <time>2023-09-14T13:43:25Z</time>
      </trkpt>
      <trkpt lat="44.33331" lon="3.62485">
        <ele>865.33</ele>
        <time>2023-09-14T13:43:41Z</time>
      </trkpt>
      <trkpt lat="44.3335" lon="3.62486">
        <ele>866.33</ele>
        <time>2023-09-14T13:43:57Z</time>
      </trkpt>
      <trkpt lat="44.33371" lon="3.6248">
        <ele>868.33</ele>
        <time>2023-09-14T13:44:13Z</time>
      </trkpt>
      <trkpt lat="44.33391" lon="3.6247">
        <ele>870.33</ele>
        <time>2023-09-14T13:44:29Z</time>
      </trkpt>
      <trkpt lat="44.33409" lon="3.62455">
        <ele>871.33</ele>
        <time>2023-09-14T13:44:45Z</time>
      </trkpt>
      <trkpt lat="44.33424" lon="3.62438">
        <ele>874.33</ele>
        <time>2023-09-14T13:44:57Z</time>
      </trkpt>
      <trkpt lat="44.33443" lon="3.62422">
        <ele>873.33</ele>
        <time>2023-09-14T13:45:13Z</time>
      </trkpt>
      <trkpt lat="44.33461" lon="3.62411">
        <ele>873.33</ele>
        <time>2023-09-14T13:45:33Z</time>
      </trkpt>
      <trkpt lat="44.3348" lon="3.62402">
        <ele>868.33</ele>
        <time>2023-09-14T13:45:49Z</time>
      </trkpt>
      <trkpt lat="44.33495" lon="3.62386">
        <ele>866.33</ele>
        <time>2023-09-14T13:46:01Z</time>
      </trkpt>
      <trkpt lat="44.33509" lon="3.62365">
        <ele>857.33</ele>
        <time>2023-09-14T13:46:21Z</time>
      </trkpt>
      <trkpt lat="44.33502" lon="3.62388">
        <ele>848.33</ele>
        <time>2023-09-14T13:51:51Z</time>
      </trkpt>
      <trkpt lat="44.33484" lon="3.62406">
        <ele>848.33</ele>
        <time>2023-09-14T13:52:11Z</time>
      </trkpt>
      <trkpt lat="44.33472" lon="3.62426">
        <ele>846.33</ele>
        <time>2023-09-14T13:52:27Z</time>
      </trkpt>
      <trkpt lat="44.33462" lon="3.62448">
        <ele>847.33</ele>
        <time>2023-09-14T13:52:43Z</time>
      </trkpt>
      <trkpt lat="44.33449" lon="3.62469">
        <ele>844.33</ele>
        <time>2023-09-14T13:52:59Z</time>
      </trkpt>
      <trkpt lat="44.33436" lon="3.62491">
        <ele>843.33</ele>
        <time>2023-09-14T13:53:15Z</time>
      </trkpt>
      <trkpt lat="44.33421" lon="3.62505">
        <ele>841.33</ele>
        <time>2023-09-14T13:53:31Z</time>
      </trkpt>
      <trkpt lat="44.33405" lon="3.6252">
        <ele>840.33</ele>
        <time>2023-09-14T13:53:47Z</time>
      </trkpt>
      <trkpt lat="44.33389" lon="3.62536">
        <ele>839.33</ele>
        <time>2023-09-14T13:54:03Z</time>
      </trkpt>
      <trkpt lat="44.33372" lon="3.62547">
        <ele>836.33</ele>
        <time>2023-09-14T13:54:19Z</time>
      </trkpt>
      <trkpt lat="44.33351" lon="3.62554">
        <ele>835.33</ele>
        <time>2023-09-14T13:54:35Z</time>
      </trkpt>
      <trkpt lat="44.33333" lon="3.62553">
        <ele>835.33</ele>
        <time>2023-09-14T13:54:51Z</time>
      </trkpt>
      <trkpt lat="44.33312" lon="3.62553">
        <ele>835.33</ele>
        <time>2023-09-14T13:55:11Z</time>
      </trkpt>
      <trkpt lat="44.3329" lon="3.6255">
        <ele>834.33</ele>
        <time>2023-09-14T13:55:27Z</time>
      </trkpt>
      <trkpt lat="44.3327" lon="3.62547">
        <ele>832.33</ele>
        <time>2023-09-14T13:55:43Z</time>
      </trkpt>
      <trkpt lat="44.3325" lon="3.6254">
        <ele>829.33</ele>
        <time>2023-09-14T13:56:03Z</time>
      </trkpt>
      <trkpt lat="44.33231" lon="3.62536">
        <ele>834.33</ele>
        <time>2023-09-14T13:56:19Z</time>
      </trkpt>
      <trkpt lat="44.33216" lon="3.62553">
        <ele>835.33</ele>
        <time>2023-09-14T13:56:35Z</time>
      </trkpt>
      <trkpt lat="44.33199" lon="3.62576">
        <ele>831.33</ele>
        <time>2023-09-14T13:56:51Z</time>
      </trkpt>
      <trkpt lat="44.33187" lon="3.62595">
        <ele>831.33</ele>
        <time>2023-09-14T13:57:07Z</time>
      </trkpt>
      <trkpt lat="44.3318" lon="3.62624">
        <ele>829.33</ele>
        <time>2023-09-14T13:57:23Z</time>
      </trkpt>
      <trkpt lat="44.33189" lon="3.62647">
        <ele>824.33</ele>
        <time>2023-09-14T13:57:35Z</time>
      </trkpt>
      <trkpt lat="44.33194" lon="3.62673">
        <ele>817.33</ele>
        <time>2023-09-14T13:57:55Z</time>
      </trkpt>
      <trkpt lat="44.33185" lon="3.62701">
        <ele>818.33</ele>
        <time>2023-09-14T13:58:15Z</time>
      </trkpt>
      <trkpt lat="44.33185" lon="3.6273">
        <ele>815.33</ele>
        <time>2023-09-14T13:58:31Z</time>
      </trkpt>
      <trkpt lat="44.33197" lon="3.62751">
        <ele>817.33</ele>
        <time>2023-09-14T13:58:47Z</time>
      </trkpt>
      <trkpt lat="44.33214" lon="3.62761">
        <ele>813.33</ele>
        <time>2023-09-14T13:59:03Z</time>
      </trkpt>
      <trkpt lat="44.33232" lon="3.62775">
        <ele>808.33</ele>
        <time>2023-09-14T13:59:23Z</time>
      </trkpt>
      <trkpt lat="44.33245" lon="3.62796">
        <ele>805.33</ele>
        <time>2023-09-14T13:59:39Z</time>
      </trkpt>
      <trkpt lat="44.33256" lon="3.62821">
        <ele>804.33</ele>
        <time>2023-09-14T13:59:59Z</time>
      </trkpt>
      <trkpt lat="44.33272" lon="3.62841">
        <ele>801.33</ele>
        <time>2023-09-14T14:00:23Z</time>
      </trkpt>
      <trkpt lat="44.33282" lon="3.62863">
        <ele>799.33</ele>
        <time>2023-09-14T14:02:23Z</time>
      </trkpt>
      <trkpt lat="44.33294" lon="3.6289">
        <ele>801.33</ele>
        <time>2023-09-14T14:02:43Z</time>
      </trkpt>
      <trkpt lat="44.33308" lon="3.62911">
        <ele>799.33</ele>
        <time>2023-09-14T14:02:59Z</time>
      </trkpt>
      <trkpt lat="44.33325" lon="3.62928">
        <ele>800.33</ele>
        <time>2023-09-14T14:03:15Z</time>
      </trkpt>
      <trkpt lat="44.33337" lon="3.62949">
        <ele>796.33</ele>
        <time>2023-09-14T14:03:31Z</time>
      </trkpt>
      <trkpt lat="44.33353" lon="3.62966">
        <ele>796.33</ele>
        <time>2023-09-14T14:03:47Z</time>
      </trkpt>
      <trkpt lat="44.33357" lon="3.62992">
        <ele>794.33</ele>
        <time>2023-09-14T14:04:07Z</time>
      </trkpt>
      <trkpt lat="44.33351" lon="3.63019">
        <ele>798.33</ele>
        <time>2023-09-14T14:04:27Z</time>
      </trkpt>
      <trkpt lat="44.33344" lon="3.63042">
        <ele>802.33</ele>
        <time>2023-09-14T14:04:43Z</time>
      </trkpt>
      <trkpt lat="44.3334" lon="3.63067">
        <ele>801.33</ele>
        <time>2023-09-14T14:04:59Z</time>
      </trkpt>
      <trkpt lat="44.33333" lon="3.63098">
        <ele>796.33</ele>
        <time>2023-09-14T14:05:15Z</time>
      </trkpt>
      <trkpt lat="44.33325" lon="3.63127">
        <ele>798.33</ele>
        <time>2023-09-14T14:05:32Z</time>
      </trkpt>
      <trkpt lat="44.3332" lon="3.63154">
        <ele>797.33</ele>
        <time>2023-09-14T14:05:49Z</time>
      </trkpt>
      <trkpt lat="44.33317" lon="3.6318">
        <ele>795.33</ele>
        <time>2023-09-14T14:06:05Z</time>
      </trkpt>
      <trkpt lat="44.33309" lon="3.63207">
        <ele>791.33</ele>
        <time>2023-09-14T14:06:21Z</time>
      </trkpt>
      <trkpt lat="44.33296" lon="3.63231">
        <ele>785.33</ele>
        <time>2023-09-14T14:06:41Z</time>
      </trkpt>
      <trkpt lat="44.33277" lon="3.63242">
        <ele>782.33</ele>
        <time>2023-09-14T14:07:01Z</time>
      </trkpt>
      <trkpt lat="44.33255" lon="3.63248">
        <ele>783.33</ele>
        <time>2023-09-14T14:07:21Z</time>
      </trkpt>
      <trkpt lat="44.33237" lon="3.63248">
        <ele>784.33</ele>
        <time>2023-09-14T14:07:33Z</time>
      </trkpt>
      <trkpt lat="44.33217" lon="3.63254">
        <ele>786.33</ele>
        <time>2023-09-14T14:07:49Z</time>
      </trkpt>
      <trkpt lat="44.33203" lon="3.63271">
        <ele>792.33</ele>
        <time>2023-09-14T14:08:13Z</time>
      </trkpt>
      <trkpt lat="44.33204" lon="3.63297">
        <ele>792.33</ele>
        <time>2023-09-14T14:08:37Z</time>
      </trkpt>
      <trkpt lat="44.33218" lon="3.63313">
        <ele>785.33</ele>
        <time>2023-09-14T14:08:53Z</time>
      </trkpt>
      <trkpt lat="44.33237" lon="3.63329">
        <ele>783.33</ele>
        <time>2023-09-14T14:09:09Z</time>
      </trkpt>
      <trkpt lat="44.33254" lon="3.63347">
        <ele>780.33</ele>
        <time>2023-09-14T14:09:21Z</time>
      </trkpt>
      <trkpt lat="44.3327" lon="3.63368">
        <ele>772.33</ele>
        <time>2023-09-14T14:09:37Z</time>
      </trkpt>
      <trkpt lat="44.33283" lon="3.63394">
        <ele>767.33</ele>
        <time>2023-09-14T14:09:53Z</time>
      </trkpt>
      <trkpt lat="44.33293" lon="3.63416">
        <ele>764.33</ele>
        <time>2023-09-14T14:10:05Z</time>
      </trkpt>
      <trkpt lat="44.33306" lon="3.63445">
        <ele>758.33</ele>
        <time>2023-09-14T14:10:21Z</time>
      </trkpt>
      <trkpt lat="44.33313" lon="3.63469">
        <ele>756.33</ele>
        <time>2023-09-14T14:10:33Z</time>
      </trkpt>
      <trkpt lat="44.33321" lon="3.63497">
        <ele>755.33</ele>
        <time>2023-09-14T14:10:49Z</time>
      </trkpt>
      <trkpt lat="44.33326" lon="3.63526">
        <ele>753.33</ele>
        <time>2023-09-14T14:11:05Z</time>
      </trkpt>
      <trkpt lat="44.33332" lon="3.63557">
        <ele>757.33</ele>
        <time>2023-09-14T14:11:25Z</time>
      </trkpt>
      <trkpt lat="44.33336" lon="3.63587">
        <ele>759.33</ele>
        <time>2023-09-14T14:11:45Z</time>
      </trkpt>
      <trkpt lat="44.33342" lon="3.63617">
        <ele>759.33</ele>
        <time>2023-09-14T14:12:01Z</time>
      </trkpt>
      <trkpt lat="44.33361" lon="3.63623">
        <ele>751.33</ele>
        <time>2023-09-14T14:12:13Z</time>
      </trkpt>
      <trkpt lat="44.33379" lon="3.63615">
        <ele>754.33</ele>
        <time>2023-09-14T14:12:29Z</time>
      </trkpt>
      <trkpt lat="44.33393" lon="3.63592">
        <ele>749.33</ele>
        <time>2023-09-14T14:13:05Z</time>
      </trkpt>
      <trkpt lat="44.33401" lon="3.63568">
        <ele>742.33</ele>
        <time>2023-09-14T14:13:25Z</time>
      </trkpt>
      <trkpt lat="44.3342" lon="3.63563">
        <ele>745.33</ele>
        <time>2023-09-14T14:13:45Z</time>
      </trkpt>
      <trkpt lat="44.33427" lon="3.63537">
        <ele>743.33</ele>
        <time>2023-09-14T14:14:01Z</time>
      </trkpt>
      <trkpt lat="44.33431" lon="3.63512">
        <ele>740.33</ele>
        <time>2023-09-14T14:14:25Z</time>
      </trkpt>
      <trkpt lat="44.33448" lon="3.63493">
        <ele>737.33</ele>
        <time>2023-09-14T14:15:25Z</time>
      </trkpt>
      <trkpt lat="44.33469" lon="3.6348">
        <ele>735.33</ele>
        <time>2023-09-14T14:16:01Z</time>
      </trkpt>
      <trkpt lat="44.3347" lon="3.63449">
        <ele>733.33</ele>
        <time>2023-09-14T14:16:17Z</time>
      </trkpt>
      <trkpt lat="44.33477" lon="3.63424">
        <ele>732.33</ele>
        <time>2023-09-14T14:16:33Z</time>
      </trkpt>
      <trkpt lat="44.3348" lon="3.63399">
        <ele>730.33</ele>
        <time>2023-09-14T14:16:49Z</time>
      </trkpt>
      <trkpt lat="44.33491" lon="3.63374">
        <ele>727.33</ele>
        <time>2023-09-14T14:17:09Z</time>
      </trkpt>
      <trkpt lat="44.33498" lon="3.6335">
        <ele>718.33</ele>
        <time>2023-09-14T14:17:25Z</time>
      </trkpt>
      <trkpt lat="44.33516" lon="3.63327">
        <ele>716.33</ele>
        <time>2023-09-14T14:17:45Z</time>
      </trkpt>
      <trkpt lat="44.33529" lon="3.63309">
        <ele>713.33</ele>
        <time>2023-09-14T14:18:01Z</time>
      </trkpt>
      <trkpt lat="44.33546" lon="3.63287">
        <ele>711.33</ele>
        <time>2023-09-14T14:18:21Z</time>
      </trkpt>
      <trkpt lat="44.33562" lon="3.63264">
        <ele>704.33</ele>
        <time>2023-09-14T14:18:37Z</time>
      </trkpt>
      <trkpt lat="44.33576" lon="3.63247">
        <ele>700.33</ele>
        <time>2023-09-14T14:18:53Z</time>
      </trkpt>
      <trkpt lat="44.33592" lon="3.63224">
        <ele>696.33</ele>
        <time>2023-09-14T14:19:13Z</time>
      </trkpt>
      <trkpt lat="44.3361" lon="3.63214">
        <ele>692.33</ele>
        <time>2023-09-14T14:19:29Z</time>
      </trkpt>
      <trkpt lat="44.33626" lon="3.63201">
        <ele>694.33</ele>
        <time>2023-09-14T14:19:45Z</time>
      </trkpt>
      <trkpt lat="44.33641" lon="3.63184">
        <ele>692.33</ele>
        <time>2023-09-14T14:20:01Z</time>
      </trkpt>
      <trkpt lat="44.33658" lon="3.6317">
        <ele>693.33</ele>
        <time>2023-09-14T14:20:21Z</time>
      </trkpt>
      <trkpt lat="44.33675" lon="3.63159">
        <ele>690.33</ele>
        <time>2023-09-14T14:20:37Z</time>
      </trkpt>
      <trkpt lat="44.3369" lon="3.63142">
        <ele>685.33</ele>
        <time>2023-09-14T14:20:53Z</time>
      </trkpt>
      <trkpt lat="44.33704" lon="3.63124">
        <ele>682.33</ele>
        <time>2023-09-14T14:21:05Z</time>
      </trkpt>
      <trkpt lat="44.33717" lon="3.63102">
        <ele>678.33</ele>
        <time>2023-09-14T14:21:21Z</time>
      </trkpt>
      <trkpt lat="44.33732" lon="3.63083">
        <ele>676.33</ele>
        <time>2023-09-14T14:21:46Z</time>
      </trkpt>
      <trkpt lat="44.33751" lon="3.63073">
        <ele>676.33</ele>
        <time>2023-09-14T14:22:10Z</time>
      </trkpt>
      <trkpt lat="44.33772" lon="3.6306">
        <ele>675.33</ele>
        <time>2023-09-14T14:22:26Z</time>
      </trkpt>
      <trkpt lat="44.3379" lon="3.63052">
        <ele>672.33</ele>
        <time>2023-09-14T14:22:46Z</time>
      </trkpt>
      <trkpt lat="44.33813" lon="3.63046">
        <ele>671.33</ele>
        <time>2023-09-14T14:23:10Z</time>
      </trkpt>
      <trkpt lat="44.33831" lon="3.63041">
        <ele>672.33</ele>
        <time>2023-09-14T14:23:26Z</time>
      </trkpt>
      <trkpt lat="44.33851" lon="3.63045">
        <ele>669.33</ele>
        <time>2023-09-14T14:23:42Z</time>
      </trkpt>
      <trkpt lat="44.33873" lon="3.63047">
        <ele>669.33</ele>
        <time>2023-09-14T14:24:02Z</time>
      </trkpt>
      <trkpt lat="44.33894" lon="3.63032">
        <ele>665.33</ele>
        <time>2023-09-14T14:24:14Z</time>
      </trkpt>
      <trkpt lat="44.33904" lon="3.6301">
        <ele>661.33</ele>
        <time>2023-09-14T14:24:26Z</time>
      </trkpt>
      <trkpt lat="44.33921" lon="3.62997">
        <ele>658.33</ele>
        <time>2023-09-14T14:24:42Z</time>
      </trkpt>
      <trkpt lat="44.33938" lon="3.62988">
        <ele>658.33</ele>
        <time>2023-09-14T14:25:02Z</time>
      </trkpt>
      <trkpt lat="44.33956" lon="3.62978">
        <ele>654.33</ele>
        <time>2023-09-14T14:25:14Z</time>
      </trkpt>
      <trkpt lat="44.33977" lon="3.62978">
        <ele>652.33</ele>
        <time>2023-09-14T14:25:30Z</time>
      </trkpt>
      <trkpt lat="44.33997" lon="3.62983">
        <ele>649.33</ele>
        <time>2023-09-14T14:25:50Z</time>
      </trkpt>
      <trkpt lat="44.34016" lon="3.62994">
        <ele>651.33</ele>
        <time>2023-09-14T14:26:14Z</time>
      </trkpt>
      <trkpt lat="44.34038" lon="3.63">
        <ele>651.33</ele>
        <time>2023-09-14T14:26:34Z</time>
      </trkpt>
      <trkpt lat="44.34061" lon="3.63003">
        <ele>651.33</ele>
        <time>2023-09-14T14:26:50Z</time>
      </trkpt>
      <trkpt lat="44.3408" lon="3.62998">
        <ele>651.33</ele>
        <time>2023-09-14T14:27:02Z</time>
      </trkpt>
      <trkpt lat="44.34099" lon="3.62995">
        <ele>652.33</ele>
        <time>2023-09-14T14:27:18Z</time>
      </trkpt>
      <trkpt lat="44.34119" lon="3.62989">
        <ele>649.33</ele>
        <time>2023-09-14T14:27:34Z</time>
      </trkpt>
      <trkpt lat="44.34139" lon="3.62985">
        <ele>646.33</ele>
        <time>2023-09-14T14:27:58Z</time>
      </trkpt>
      <trkpt lat="44.34162" lon="3.62983">
        <ele>643.33</ele>
        <time>2023-09-14T14:28:14Z</time>
      </trkpt>
      <trkpt lat="44.34181" lon="3.62985">
        <ele>639.33</ele>
        <time>2023-09-14T14:28:30Z</time>
      </trkpt>
      <trkpt lat="44.34201" lon="3.62979">
        <ele>635.33</ele>
        <time>2023-09-14T14:28:46Z</time>
      </trkpt>
      <trkpt lat="44.3422" lon="3.62975">
        <ele>634.33</ele>
        <time>2023-09-14T14:29:02Z</time>
      </trkpt>
      <trkpt lat="44.34244" lon="3.62969">
        <ele>630.33</ele>
        <time>2023-09-14T14:29:18Z</time>
      </trkpt>
      <trkpt lat="44.34263" lon="3.62957">
        <ele>628.33</ele>
        <time>2023-09-14T14:29:34Z</time>
      </trkpt>
      <trkpt lat="44.3428" lon="3.62941">
        <ele>626.33</ele>
        <time>2023-09-14T14:29:50Z</time>
      </trkpt>
      <trkpt lat="44.34301" lon="3.62929">
        <ele>624.33</ele>
        <time>2023-09-14T14:30:06Z</time>
      </trkpt>
      <trkpt lat="44.34323" lon="3.62923">
        <ele>620.33</ele>
        <time>2023-09-14T14:30:26Z</time>
      </trkpt>
      <trkpt lat="44.3434" lon="3.62913">
        <ele>615.33</ele>
        <time>2023-09-14T14:30:42Z</time>
      </trkpt>
      <trkpt lat="44.34355" lon="3.62895">
        <ele>612.33</ele>
        <time>2023-09-14T14:30:58Z</time>
      </trkpt>
      <trkpt lat="44.3437" lon="3.62873">
        <ele>608.33</ele>
        <time>2023-09-14T14:31:18Z</time>
      </trkpt>
      <trkpt lat="44.34381" lon="3.62847">
        <ele>603.33</ele>
        <time>2023-09-14T14:31:38Z</time>
      </trkpt>
      <trkpt lat="44.3439" lon="3.62825">
        <ele>601.33</ele>
        <time>2023-09-14T14:31:54Z</time>
      </trkpt>
      <trkpt lat="44.34404" lon="3.62805">
        <ele>602.33</ele>
        <time>2023-09-14T14:32:10Z</time>
      </trkpt>
      <trkpt lat="44.34424" lon="3.6279">
        <ele>609.33</ele>
        <time>2023-09-14T14:32:35Z</time>
      </trkpt>
      <trkpt lat="44.34443" lon="3.62782">
        <ele>611.33</ele>
        <time>2023-09-14T14:32:55Z</time>
      </trkpt>
      <trkpt lat="44.34463" lon="3.62775">
        <ele>608.33</ele>
        <time>2023-09-14T14:33:11Z</time>
      </trkpt>
      <trkpt lat="44.3448" lon="3.62764">
        <ele>607.33</ele>
        <time>2023-09-14T14:33:27Z</time>
      </trkpt>
      <trkpt lat="44.34496" lon="3.62752">
        <ele>606.33</ele>
        <time>2023-09-14T14:33:43Z</time>
      </trkpt>
      <trkpt lat="44.34513" lon="3.62736">
        <ele>606.33</ele>
        <time>2023-09-14T14:33:59Z</time>
      </trkpt>
      <trkpt lat="44.34533" lon="3.62715">
        <ele>605.33</ele>
        <time>2023-09-14T14:34:15Z</time>
      </trkpt>
      <trkpt lat="44.34541" lon="3.62691">
        <ele>599.33</ele>
        <time>2023-09-14T14:34:31Z</time>
      </trkpt>
      <trkpt lat="44.34524" lon="3.62677">
        <ele>590.33</ele>
        <time>2023-09-14T14:34:59Z</time>
      </trkpt>
      <trkpt lat="44.34532" lon="3.62651">
        <ele>587.33</ele>
        <time>2023-09-14T14:37:12Z</time>
      </trkpt>
      <trkpt lat="44.34536" lon="3.62622">
        <ele>590.33</ele>
        <time>2023-09-14T14:37:32Z</time>
      </trkpt>
      <trkpt lat="44.34545" lon="3.62598">
        <ele>591.33</ele>
        <time>2023-09-14T14:37:48Z</time>
      </trkpt>
      <trkpt lat="44.34556" lon="3.62576">
        <ele>590.33</ele>
        <time>2023-09-14T14:38:04Z</time>
      </trkpt>
      <trkpt lat="44.3457" lon="3.62559">
        <ele>589.33</ele>
        <time>2023-09-14T14:38:20Z</time>
      </trkpt>
      <trkpt lat="44.34581" lon="3.62536">
        <ele>584.33</ele>
        <time>2023-09-14T14:38:36Z</time>
      </trkpt>
      <trkpt lat="44.34582" lon="3.62507">
        <ele>580.33</ele>
        <time>2023-09-14T14:38:52Z</time>
      </trkpt>
      <trkpt lat="44.34579" lon="3.62482">
        <ele>580.33</ele>
        <time>2023-09-14T14:39:08Z</time>
      </trkpt>
      <trkpt lat="44.34573" lon="3.62454">
        <ele>579.33</ele>
        <time>2023-09-14T14:39:28Z</time>
      </trkpt>
      <trkpt lat="44.34576" lon="3.62422">
        <ele>583.33</ele>
        <time>2023-09-14T14:39:48Z</time>
      </trkpt>
      <trkpt lat="44.34584" lon="3.62396">
        <ele>585.33</ele>
        <time>2023-09-14T14:40:08Z</time>
      </trkpt>
      <trkpt lat="44.34596" lon="3.62376">
        <ele>584.33</ele>
        <time>2023-09-14T14:40:24Z</time>
      </trkpt>
      <trkpt lat="44.34605" lon="3.62353">
        <ele>581.33</ele>
        <time>2023-09-14T14:40:40Z</time>
      </trkpt>
      <trkpt lat="44.34598" lon="3.62322">
        <ele>581.33</ele>
        <time>2023-09-14T14:41:00Z</time>
      </trkpt>
      <trkpt lat="44.34593" lon="3.62295">
        <ele>583.33</ele>
        <time>2023-09-14T14:41:28Z</time>
      </trkpt>
      <trkpt lat="44.3459" lon="3.62269">
        <ele>587.33</ele>
        <time>2023-09-14T14:42:20Z</time>
      </trkpt>
      <trkpt lat="44.34589" lon="3.62243">
        <ele>588.33</ele>
        <time>2023-09-14T14:42:36Z</time>
      </trkpt>
      <trkpt lat="44.34584" lon="3.62216">
        <ele>586.33</ele>
        <time>2023-09-14T14:43:12Z</time>
      </trkpt>
      <trkpt lat="44.34578" lon="3.62191">
        <ele>586.33</ele>
        <time>2023-09-14T14:43:28Z</time>
      </trkpt>
      <trkpt lat="44.34571" lon="3.62168">
        <ele>584.33</ele>
        <time>2023-09-14T14:43:44Z</time>
      </trkpt>
      <trkpt lat="44.34567" lon="3.62141">
        <ele>583.33</ele>
        <time>2023-09-14T14:44:00Z</time>
      </trkpt>
      <trkpt lat="44.34559" lon="3.62114">
        <ele>584.33</ele>
        <time>2023-09-14T14:44:24Z</time>
      </trkpt>
      <trkpt lat="44.34554" lon="3.62083">
        <ele>583.33</ele>
        <time>2023-09-14T14:44:40Z</time>
      </trkpt>
      <trkpt lat="44.34547" lon="3.62055">
        <ele>582.33</ele>
        <time>2023-09-14T14:44:56Z</time>
      </trkpt>
      <trkpt lat="44.34539" lon="3.62028">
        <ele>583.33</ele>
        <time>2023-09-14T14:45:12Z</time>
      </trkpt>
      <trkpt lat="44.34527" lon="3.62004">
        <ele>580.33</ele>
        <time>2023-09-14T14:45:28Z</time>
      </trkpt>
      <trkpt lat="44.34516" lon="3.61981">
        <ele>580.33</ele>
        <time>2023-09-14T14:45:44Z</time>
      </trkpt>
      <trkpt lat="44.34504" lon="3.6196">
        <ele>580.33</ele>
        <time>2023-09-14T14:46:00Z</time>
      </trkpt>
      <trkpt lat="44.34489" lon="3.61941">
        <ele>579.33</ele>
        <time>2023-09-14T14:46:16Z</time>
      </trkpt>
      <trkpt lat="44.34476" lon="3.61915">
        <ele>581.33</ele>
        <time>2023-09-14T14:46:37Z</time>
      </trkpt>
      <trkpt lat="44.34463" lon="3.61889">
        <ele>579.33</ele>
        <time>2023-09-14T14:46:57Z</time>
      </trkpt>
      <trkpt lat="44.34448" lon="3.61872">
        <ele>578.33</ele>
        <time>2023-09-14T14:47:09Z</time>
      </trkpt>
      <trkpt lat="44.34435" lon="3.61847">
        <ele>576.33</ele>
        <time>2023-09-14T14:47:29Z</time>
      </trkpt>
      <trkpt lat="44.34424" lon="3.61824">
        <ele>575.33</ele>
        <time>2023-09-14T14:47:45Z</time>
      </trkpt>
      <trkpt lat="44.34414" lon="3.61797">
        <ele>574.33</ele>
        <time>2023-09-14T14:48:01Z</time>
      </trkpt>
      <trkpt lat="44.34401" lon="3.61775">
        <ele>572.33</ele>
        <time>2023-09-14T14:48:17Z</time>
      </trkpt>
      <trkpt lat="44.34397" lon="3.61749">
        <ele>572.33</ele>
        <time>2023-09-14T14:48:33Z</time>
      </trkpt>
      <trkpt lat="44.34406" lon="3.61719">
        <ele>572.33</ele>
        <time>2023-09-14T14:48:53Z</time>
      </trkpt>
      <trkpt lat="44.34407" lon="3.61688">
        <ele>569.33</ele>
        <time>2023-09-14T14:49:09Z</time>
      </trkpt>
      <trkpt lat="44.34401" lon="3.61659">
        <ele>570.33</ele>
        <time>2023-09-14T14:49:25Z</time>
      </trkpt>
      <trkpt lat="44.34391" lon="3.61634">
        <ele>567.33</ele>
        <time>2023-09-14T14:49:41Z</time>
      </trkpt>
      <trkpt lat="44.34381" lon="3.61608">
        <ele>570.33</ele>
        <time>2023-09-14T14:49:57Z</time>
      </trkpt>
      <trkpt lat="44.34373" lon="3.61584">
        <ele>573.33</ele>
        <time>2023-09-14T14:50:13Z</time>
      </trkpt>
      <trkpt lat="44.34364" lon="3.61561">
        <ele>576.33</ele>
        <time>2023-09-14T14:50:30Z</time>
      </trkpt>
      <trkpt lat="44.34366" lon="3.61533">
        <ele>576.33</ele>
        <time>2023-09-14T14:50:46Z</time>
      </trkpt>
      <trkpt lat="44.34361" lon="3.61504">
        <ele>578.33</ele>
        <time>2023-09-14T14:51:03Z</time>
      </trkpt>
      <trkpt lat="44.34354" lon="3.61479">
        <ele>580.33</ele>
        <time>2023-09-14T14:51:19Z</time>
      </trkpt>
      <trkpt lat="44.34352" lon="3.61449">
        <ele>579.33</ele>
        <time>2023-09-14T14:51:35Z</time>
      </trkpt>
      <trkpt lat="44.34351" lon="3.61418">
        <ele>581.33</ele>
        <time>2023-09-14T14:51:55Z</time>
      </trkpt>
      <trkpt lat="44.34349" lon="3.61388">
        <ele>582.33</ele>
        <time>2023-09-14T14:52:15Z</time>
      </trkpt>
      <trkpt lat="44.34344" lon="3.61356">
        <ele>577.33</ele>
        <time>2023-09-14T14:52:31Z</time>
      </trkpt>
      <trkpt lat="44.34338" lon="3.61327">
        <ele>577.33</ele>
        <time>2023-09-14T14:52:47Z</time>
      </trkpt>
      <trkpt lat="44.34341" lon="3.61301">
        <ele>578.33</ele>
        <time>2023-09-14T14:53:03Z</time>
      </trkpt>
      <trkpt lat="44.34347" lon="3.61274">
        <ele>578.33</ele>
        <time>2023-09-14T14:53:19Z</time>
      </trkpt>
      <trkpt lat="44.34347" lon="3.61248">
        <ele>574.33</ele>
        <time>2023-09-14T14:53:35Z</time>
      </trkpt>
      <trkpt lat="44.3435" lon="3.61223">
        <ele>573.33</ele>
        <time>2023-09-14T14:53:51Z</time>
      </trkpt>
      <trkpt lat="44.34348" lon="3.61197">
        <ele>575.33</ele>
        <time>2023-09-14T14:54:07Z</time>
      </trkpt>
      <trkpt lat="44.34353" lon="3.61168">
        <ele>579.33</ele>
        <time>2023-09-14T14:54:27Z</time>
      </trkpt>
      <trkpt lat="44.34363" lon="3.61141">
        <ele>579.33</ele>
        <time>2023-09-14T14:54:47Z</time>
      </trkpt>
      <trkpt lat="44.34374" lon="3.61117">
        <ele>577.33</ele>
        <time>2023-09-14T14:55:07Z</time>
      </trkpt>
      <trkpt lat="44.34383" lon="3.61092">
        <ele>575.33</ele>
        <time>2023-09-14T14:55:35Z</time>
      </trkpt>
      <trkpt lat="44.34394" lon="3.61069">
        <ele>577.33</ele>
        <time>2023-09-14T14:56:03Z</time>
      </trkpt>
      <trkpt lat="44.34414" lon="3.61051">
        <ele>576.33</ele>
        <time>2023-09-14T14:56:27Z</time>
      </trkpt>
      <trkpt lat="44.34428" lon="3.61026">
        <ele>575.33</ele>
        <time>2023-09-14T14:56:47Z</time>
      </trkpt>
      <trkpt lat="44.34441" lon="3.61005">
        <ele>572.33</ele>
        <time>2023-09-14T14:57:07Z</time>
      </trkpt>
      <trkpt lat="44.34459" lon="3.61012">
        <ele>567.33</ele>
        <time>2023-09-14T15:01:24Z</time>
      </trkpt>
      <trkpt lat="44.34474" lon="3.61031">
        <ele>567.33</ele>
        <time>2023-09-14T15:01:40Z</time>
      </trkpt>
      <trkpt lat="44.3449" lon="3.61052">
        <ele>567.33</ele>
        <time>2023-09-14T15:01:56Z</time>
      </trkpt>
      <trkpt lat="44.34503" lon="3.61073">
        <ele>565.33</ele>
        <time>2023-09-14T15:02:12Z</time>
      </trkpt>
      <trkpt lat="44.34523" lon="3.61068">
        <ele>564.33</ele>
        <time>2023-09-14T15:02:32Z</time>
      </trkpt>
    </trkseg>
  </trk>
</gpx>